Observation data for Throckmorton on 08/14/2020      Previous  Date  Next       Current Mesonet Observations  Soil Data  Daily Summary Page  Observations in Plain Language
KTH1 140500Z 17007KT 31/14 A2985 RMK A01 T03060139  RH  036%=      5-min Rain = 0
KTH1 140501Z 17007KT 31/14 A2985 RMK A01 T03060138  RH  036%=      5-min Rain = 0
KTH1 140502Z 17006KT 31/14 A2985 RMK A01 T03060138  RH  036%=      5-min Rain = 0
KTH1 140503Z 17006KT 31/14 A2985 RMK A01 T03060138  RH  036%=      5-min Rain = 0
KTH1 140504Z 17008KT 31/14 A2985 RMK A01 T03060138  RH  036%=      5-min Rain = 0
KTH1 140505Z 17008KT 31/14 A2985 RMK A01 T03050138  RH  036%=      5-min Rain = 0
KTH1 140506Z 17007KT 31/14 A2985 RMK A01 T03060138  RH  036%=      5-min Rain = 0
KTH1 140507Z 16007KT 31/14 A2985 RMK A01 T03060138  RH  036%=      5-min Rain = 0
KTH1 140508Z 17008KT 31/14 A2985 RMK A01 T03060138  RH  036%=      5-min Rain = 0
KTH1 140509Z 17006KT 31/14 A2985 RMK A01 T03060137  RH  036%=      5-min Rain = 0
KTH1 140510Z 17008KT 31/14 A2985 RMK A01 T03060138  RH  036%=      5-min Rain = 0
KTH1 140511Z 17008KT 31/14 A2985 RMK A01 T03060138  RH  036%=      5-min Rain = 0
KTH1 140512Z 18007KT 31/14 A2985 RMK A01 T03060138  RH  036%=      5-min Rain = 0
KTH1 140513Z 18007KT 31/14 A2985 RMK A01 T03060138  RH  036%=      5-min Rain = 0
KTH1 140514Z 17007KT 31/14 A2985 RMK A01 T03060137  RH  036%=      5-min Rain = 0
KTH1 140515Z 17006KT 31/14 A2985 RMK A01 T03060138  RH  036%=      5-min Rain = 0
KTH1 140516Z 17008KT 31/14 A2985 RMK A01 T03060138  RH  036%=      5-min Rain = 0
KTH1 140517Z 17008G13KT 31/14 A2985 RMK A01 T03060138  RH  036%=      5-min Rain = 0
KTH1 140518Z 17008KT 31/14 A2985 RMK A01 T03060137  RH  036%=      5-min Rain = 0
KTH1 140519Z 18008KT 31/14 A2985 RMK A01 T03060137  RH  036%=      5-min Rain = 0
KTH1 140520Z 18007G12KT 31/14 A2985 RMK A01 T03070137  RH  036%=      5-min Rain = 0
KTH1 140521Z 17008KT 31/14 A2985 RMK A01 T03070137  RH  035%=      5-min Rain = 0
KTH1 140522Z 17008KT 31/14 A2985 RMK A01 T03080138  RH  036%=      5-min Rain = 0
KTH1 140523Z 18008G13KT 31/14 A2985 RMK A01 T03070138  RH  035%=      5-min Rain = 0
KTH1 140524Z 18010KT 31/14 A2985 RMK A01 T03080138  RH  035%=      5-min Rain = 0
KTH1 140525Z 17007KT 31/14 A2985 RMK A01 T03080138  RH  035%=      5-min Rain = 0
KTH1 140526Z 18008KT 31/14 A2985 RMK A01 T03080138  RH  035%=      5-min Rain = 0
KTH1 140527Z 18009KT 31/14 A2985 RMK A01 T03080138  RH  035%=      5-min Rain = 0
KTH1 140528Z 18008KT 31/14 A2985 RMK A01 T03080138  RH  035%=      5-min Rain = 0
KTH1 140529Z 17006KT 31/14 A2985 RMK A01 T03080138  RH  035%=      5-min Rain = 0
KTH1 140530Z 18010KT 31/14 A2985 RMK A01 T03090139  RH  035%=      5-min Rain = 0
KTH1 140531Z 17006KT 31/14 A2985 RMK A01 T03090139  RH  036%=      5-min Rain = 0
KTH1 140532Z 18009KT 31/14 A2985 RMK A01 T03090139  RH  036%=      5-min Rain = 0
KTH1 140533Z 18007KT 31/14 A2985 RMK A01 T03080139  RH  036%=      5-min Rain = 0
KTH1 140534Z 18008KT 31/14 A2985 RMK A01 T03080139  RH  036%=      5-min Rain = 0
KTH1 140535Z 18010KT 31/14 A2985 RMK A01 T03080139  RH  036%=      5-min Rain = 0
KTH1 140536Z 18008KT 31/14 A2985 RMK A01 T03080139  RH  036%=      5-min Rain = 0
KTH1 140537Z 18008G15KT 31/14 A2985 RMK A01 T03080139  RH  036%=      5-min Rain = 0
KTH1 140538Z 18008KT 31/14 A2985 RMK A01 T03090139  RH  036%=      5-min Rain = 0
KTH1 140539Z 18008KT 31/14 A2985 RMK A01 T03080139  RH  036%=      5-min Rain = 0
KTH1 140540Z 18009KT 31/14 A2985 RMK A01 T03080139  RH  036%=      5-min Rain = 0
KTH1 140541Z 18006KT 31/14 A2985 RMK A01 T03080140  RH  036%=      5-min Rain = 0
KTH1 140542Z 18008G14KT 31/14 A2985 RMK A01 T03080140  RH  036%=      5-min Rain = 0
KTH1 140543Z 18008G13KT 31/14 A2985 RMK A01 T03080140  RH  036%=      5-min Rain = 0
KTH1 140544Z 18009KT 31/14 A2985 RMK A01 T03080140  RH  036%=      5-min Rain = 0
KTH1 140545Z 18009KT 31/14 A2985 RMK A01 T03080140  RH  036%=      5-min Rain = 0
KTH1 140546Z 18008KT 31/14 A2985 RMK A01 T03090140  RH  036%=      5-min Rain = 0
KTH1 140547Z 18009KT 31/14 A2985 RMK A01 T03100140  RH  036%=      5-min Rain = 0
KTH1 140548Z 18009KT 31/14 A2985 RMK A01 T03090140  RH  036%=      5-min Rain = 0
KTH1 140549Z 19007KT 31/14 A2985 RMK A01 T03090140  RH  036%=      5-min Rain = 0
KTH1 140550Z 19009KT 31/14 A2985 RMK A01 T03090140  RH  036%=      5-min Rain = 0
KTH1 140551Z 18008G13KT 31/14 A2985 RMK A01 T03090140  RH  036%=      5-min Rain = 0
KTH1 140552Z 18009KT 31/14 A2985 RMK A01 T03090140  RH  036%=      5-min Rain = 0
KTH1 140553Z 18007G12KT 31/14 A2985 RMK A01 T03090140  RH  036%=      5-min Rain = 0
KTH1 140554Z 18009KT 31/14 A2985 RMK A01 T03090140  RH  036%=      5-min Rain = 0
KTH1 140555Z 19007G12KT 31/14 A2985 RMK A01 T03090140  RH  036%=      5-min Rain = 0
KTH1 140556Z 18008KT 31/14 A2985 RMK A01 T03090141  RH  036%=      5-min Rain = 0
KTH1 140557Z 18007KT 31/14 A2985 RMK A01 T03090141  RH  036%=      5-min Rain = 0
KTH1 140558Z 18008KT 31/14 A2985 RMK A01 T03090140  RH  036%=      5-min Rain = 0
KTH1 140559Z 18007KT 31/14 A2985 RMK A01 T03090141  RH  036%=      5-min Rain = 0
KTH1 140600Z 18008KT 31/14 A2985 RMK A01 T03090141  RH  036%=      5-min Rain = 0
KTH1 140601Z 18007KT 31/14 A2985 RMK A01 T03080141  RH  036%=      5-min Rain = 0
KTH1 140602Z 18007KT 31/14 A2985 RMK A01 T03080141  RH  036%=      5-min Rain = 0
KTH1 140603Z 18006KT 31/14 A2985 RMK A01 T03070141  RH  036%=      5-min Rain = 0
KTH1 140604Z 18007KT 31/14 A2985 RMK A01 T03070141  RH  036%=      5-min Rain = 0
KTH1 140605Z 18010KT 31/14 A2985 RMK A01 T03060141  RH  036%=      5-min Rain = 0
KTH1 140606Z 18007KT 31/14 A2985 RMK A01 T03060141  RH  036%=      5-min Rain = 0
KTH1 140607Z 18006KT 31/14 A2985 RMK A01 T03060141  RH  036%=      5-min Rain = 0
KTH1 140608Z 18007KT 31/14 A2985 RMK A01 T03060140  RH  036%=      5-min Rain = 0
KTH1 140609Z 17007KT 31/14 A2985 RMK A01 T03060141  RH  036%=      5-min Rain = 0
KTH1 140610Z 18006KT 31/14 A2985 RMK A01 T03060141  RH  037%=      5-min Rain = 0
KTH1 140611Z 18006KT 31/14 A2985 RMK A01 T03050141  RH  037%=      5-min Rain = 0
KTH1 140612Z 17007KT 31/14 A2985 RMK A01 T03050141  RH  037%=      5-min Rain = 0
KTH1 140613Z 17005KT 30/14 A2985 RMK A01 T03040141  RH  037%=      5-min Rain = 0
KTH1 140614Z 17008KT 30/14 A2985 RMK A01 T03040141  RH  037%=      5-min Rain = 0
KTH1 140615Z 17007KT 30/14 A2985 RMK A01 T03030141  RH  037%=      5-min Rain = 0
KTH1 140616Z 18007KT 30/14 A2985 RMK A01 T03030141  RH  037%=      5-min Rain = 0
KTH1 140617Z 17007KT 30/14 A2985 RMK A01 T03030141  RH  037%=      5-min Rain = 0
KTH1 140618Z 17006KT 30/14 A2985 RMK A01 T03030141  RH  037%=      5-min Rain = 0
KTH1 140619Z 17005KT 30/14 A2985 RMK A01 T03030141  RH  037%=      5-min Rain = 0
KTH1 140620Z 17007KT 30/14 A2985 RMK A01 T03020141  RH  037%=      5-min Rain = 0
KTH1 140621Z 18007KT 30/14 A2985 RMK A01 T03020141  RH  037%=      5-min Rain = 0
KTH1 140622Z 18007KT 30/14 A2986 RMK A01 T03020141  RH  037%=      5-min Rain = 0
KTH1 140623Z 18007KT 30/14 A2986 RMK A01 T03020141  RH  037%=      5-min Rain = 0
KTH1 140624Z 17006KT 30/14 A2986 RMK A01 T03020141  RH  037%=      5-min Rain = 0
KTH1 140625Z 17007KT 30/14 A2986 RMK A01 T03020141  RH  037%=      5-min Rain = 0
KTH1 140626Z 17006KT 30/14 A2986 RMK A01 T03020141  RH  038%=      5-min Rain = 0
KTH1 140627Z 18007KT 30/14 A2986 RMK A01 T03010141  RH  038%=      5-min Rain = 0
KTH1 140628Z 17006KT 30/14 A2986 RMK A01 T03010141  RH  038%=      5-min Rain = 0
KTH1 140629Z 18007KT 30/14 A2986 RMK A01 T03000142  RH  038%=      5-min Rain = 0
KTH1 140630Z 17005KT 30/14 A2986 RMK A01 T02990141  RH  038%=      5-min Rain = 0
KTH1 140631Z 17008KT 30/14 A2986 RMK A01 T02990142  RH  038%=      5-min Rain = 0
KTH1 140632Z 17008KT 30/14 A2986 RMK A01 T02990142  RH  038%=      5-min Rain = 0
KTH1 140633Z 18008KT 30/14 A2986 RMK A01 T02990142  RH  038%=      5-min Rain = 0
KTH1 140634Z 17006KT 30/14 A2986 RMK A01 T02990142  RH  038%=      5-min Rain = 0
KTH1 140635Z 18008KT 30/14 A2986 RMK A01 T02990141  RH  038%=      5-min Rain = 0
KTH1 140636Z 18007KT 30/14 A2986 RMK A01 T02990142  RH  038%=      5-min Rain = 0
KTH1 140637Z 18006KT 30/14 A2986 RMK A01 T02990142  RH  038%=      5-min Rain = 0
KTH1 140638Z 18006KT 30/14 A2986 RMK A01 T02980142  RH  038%=      5-min Rain = 0
KTH1 140639Z 17008KT 30/14 A2986 RMK A01 T02980142  RH  039%=      5-min Rain = 0
KTH1 140640Z 18007KT 30/14 A2986 RMK A01 T02980142  RH  039%=      5-min Rain = 0
KTH1 140641Z 17006KT 30/14 A2986 RMK A01 T02980142  RH  038%=      5-min Rain = 0
KTH1 140642Z 18006KT 30/14 A2986 RMK A01 T02990142  RH  038%=      5-min Rain = 0
KTH1 140643Z 17006KT 30/14 A2986 RMK A01 T02990142  RH  038%=      5-min Rain = 0
KTH1 140644Z 18007KT 30/14 A2986 RMK A01 T02980142  RH  039%=      5-min Rain = 0
KTH1 140645Z 18007KT 30/14 A2986 RMK A01 T02980142  RH  039%=      5-min Rain = 0
KTH1 140646Z 18006KT 30/14 A2986 RMK A01 T02980142  RH  039%=      5-min Rain = 0
KTH1 140647Z 18006KT 30/14 A2986 RMK A01 T02980143  RH  039%=      5-min Rain = 0
KTH1 140648Z 18005KT 30/14 A2986 RMK A01 T02980142  RH  039%=      5-min Rain = 0
KTH1 140649Z 18007KT 30/14 A2986 RMK A01 T02980143  RH  039%=      5-min Rain = 0
KTH1 140650Z 18007KT 30/14 A2986 RMK A01 T02980143  RH  039%=      5-min Rain = 0
KTH1 140651Z 18007KT 30/14 A2986 RMK A01 T02980143  RH  039%=      5-min Rain = 0
KTH1 140652Z 18006KT 30/14 A2986 RMK A01 T02980143  RH  039%=      5-min Rain = 0
KTH1 140653Z 18008KT 30/14 A2986 RMK A01 T02980143  RH  039%=      5-min Rain = 0
KTH1 140654Z 18007KT 30/14 A2986 RMK A01 T02980143  RH  039%=      5-min Rain = 0
KTH1 140655Z 18006KT 30/14 A2986 RMK A01 T02980143  RH  039%=      5-min Rain = 0
KTH1 140656Z 17006KT 30/14 A2986 RMK A01 T02980143  RH  039%=      5-min Rain = 0
KTH1 140657Z 17007KT 30/14 A2986 RMK A01 T02980144  RH  039%=      5-min Rain = 0
KTH1 140658Z 17006KT 30/14 A2986 RMK A01 T02970143  RH  039%=      5-min Rain = 0
KTH1 140659Z 18006KT 30/14 A2986 RMK A01 T02970143  RH  039%=      5-min Rain = 0
KTH1 140700Z 17007KT 30/14 A2986 RMK A01 T02960143  RH  039%=      5-min Rain = 0
KTH1 140701Z 17006KT 30/14 A2986 RMK A01 T02970144  RH  039%=      5-min Rain = 0
KTH1 140702Z 17006KT 30/14 A2986 RMK A01 T02960143  RH  039%=      5-min Rain = 0
KTH1 140703Z 17006KT 30/14 A2986 RMK A01 T02960143  RH  039%=      5-min Rain = 0
KTH1 140704Z 17006KT 30/14 A2986 RMK A01 T02950144  RH  040%=      5-min Rain = 0
KTH1 140705Z 17006KT 30/14 A2986 RMK A01 T02950143  RH  040%=      5-min Rain = 0
KTH1 140706Z 18006KT 30/14 A2986 RMK A01 T02950143  RH  040%=      5-min Rain = 0
KTH1 140707Z 18005KT 29/14 A2986 RMK A01 T02940143  RH  040%=      5-min Rain = 0
KTH1 140708Z 18006KT 29/14 A2986 RMK A01 T02940144  RH  040%=      5-min Rain = 0
KTH1 140709Z 17006KT 29/14 A2986 RMK A01 T02940143  RH  040%=      5-min Rain = 0
KTH1 140710Z 17007KT 29/14 A2986 RMK A01 T02940144  RH  040%=      5-min Rain = 0
KTH1 140711Z 17005KT 29/14 A2986 RMK A01 T02940144  RH  040%=      5-min Rain = 0
KTH1 140712Z 17005KT 29/14 A2986 RMK A01 T02930144  RH  040%=      5-min Rain = 0
KTH1 140713Z 17005KT 29/14 A2986 RMK A01 T02930144  RH  040%=      5-min Rain = 0
KTH1 140714Z 18007KT 29/14 A2986 RMK A01 T02920144  RH  040%=      5-min Rain = 0
KTH1 140715Z 18007KT 29/14 A2986 RMK A01 T02920144  RH  041%=      5-min Rain = 0
KTH1 140716Z 17005KT 29/14 A2986 RMK A01 T02910144  RH  040%=      5-min Rain = 0
KTH1 140717Z 18005KT 29/14 A2986 RMK A01 T02920144  RH  040%=      5-min Rain = 0
KTH1 140718Z 18005KT 29/14 A2986 RMK A01 T02920144  RH  040%=      5-min Rain = 0
KTH1 140719Z 18008KT 29/14 A2986 RMK A01 T02920144  RH  040%=      5-min Rain = 0
KTH1 140720Z 18005KT 29/14 A2986 RMK A01 T02920144  RH  040%=      5-min Rain = 0
KTH1 140721Z 19006KT 29/15 A2986 RMK A01 T02930145  RH  040%=      5-min Rain = 0
KTH1 140722Z 18007KT 29/15 A2986 RMK A01 T02920145  RH  041%=      5-min Rain = 0
KTH1 140723Z 18005KT 29/15 A2986 RMK A01 T02920145  RH  041%=      5-min Rain = 0
KTH1 140724Z 18005KT 29/15 A2986 RMK A01 T02930145  RH  041%=      5-min Rain = 0
KTH1 140725Z 19006KT 29/15 A2986 RMK A01 T02920145  RH  041%=      5-min Rain = 0
KTH1 140726Z 18005KT 29/15 A2986 RMK A01 T02920145  RH  041%=      5-min Rain = 0
KTH1 140727Z 19006KT 29/15 A2986 RMK A01 T02920145  RH  041%=      5-min Rain = 0
KTH1 140728Z 19005KT 29/15 A2986 RMK A01 T02910145  RH  041%=      5-min Rain = 0
KTH1 140729Z 19005KT 29/15 A2986 RMK A01 T02910145  RH  041%=      5-min Rain = 0
KTH1 140730Z 19006KT 29/15 A2986 RMK A01 T02910145  RH  041%=      5-min Rain = 0
KTH1 140731Z 18006KT 29/15 A2986 RMK A01 T02900145  RH  041%=      5-min Rain = 0
KTH1 140732Z 19005KT 29/15 A2986 RMK A01 T02900146  RH  041%=      5-min Rain = 0
KTH1 140733Z 18005KT 29/15 A2986 RMK A01 T02900145  RH  041%=      5-min Rain = 0
KTH1 140734Z 19004KT 29/15 A2986 RMK A01 T02900146  RH  041%=      5-min Rain = 0
KTH1 140735Z 19005KT 29/15 A2986 RMK A01 T02890145  RH  041%=      5-min Rain = 0
KTH1 140736Z 18005KT 29/15 A2986 RMK A01 T02890146  RH  042%=      5-min Rain = 0
KTH1 140737Z 19006KT 29/15 A2986 RMK A01 T02880146  RH  042%=      5-min Rain = 0
KTH1 140738Z 19006KT 29/15 A2986 RMK A01 T02880146  RH  042%=      5-min Rain = 0
KTH1 140739Z 18005KT 29/15 A2986 RMK A01 T02880145  RH  042%=      5-min Rain = 0
KTH1 140740Z 18006KT 29/15 A2986 RMK A01 T02880146  RH  042%=      5-min Rain = 0
KTH1 140741Z 19005KT 29/15 A2986 RMK A01 T02880146  RH  042%=      5-min Rain = 0
KTH1 140742Z 19006KT 29/15 A2986 RMK A01 T02880146  RH  042%=      5-min Rain = 0
KTH1 140743Z 19004KT 29/15 A2986 RMK A01 T02880146  RH  042%=      5-min Rain = 0
KTH1 140744Z 18004KT 29/15 A2986 RMK A01 T02870146  RH  042%=      5-min Rain = 0
KTH1 140745Z 19006KT 29/15 A2986 RMK A01 T02870146  RH  042%=      5-min Rain = 0
KTH1 140746Z 18005KT 29/15 A2986 RMK A01 T02870146  RH  042%=      5-min Rain = 0
KTH1 140747Z 19007KT 29/15 A2986 RMK A01 T02870146  RH  042%=      5-min Rain = 0
KTH1 140748Z 19007KT 29/15 A2986 RMK A01 T02870147  RH  042%=      5-min Rain = 0
KTH1 140749Z 18006KT 29/15 A2986 RMK A01 T02860146  RH  042%=      5-min Rain = 0
KTH1 140750Z 19004KT 29/15 A2986 RMK A01 T02860146  RH  042%=      5-min Rain = 0
KTH1 140751Z 18006KT 29/15 A2986 RMK A01 T02860147  RH  042%=      5-min Rain = 0
KTH1 140752Z 19005KT 29/15 A2986 RMK A01 T02860146  RH  043%=      5-min Rain = 0
KTH1 140753Z 18007KT 29/15 A2986 RMK A01 T02860147  RH  043%=      5-min Rain = 0
KTH1 140754Z 18005KT 29/15 A2986 RMK A01 T02860147  RH  043%=      5-min Rain = 0
KTH1 140755Z 19006KT 29/15 A2986 RMK A01 T02860147  RH  043%=      5-min Rain = 0
KTH1 140756Z 18006KT 29/15 A2986 RMK A01 T02860147  RH  043%=      5-min Rain = 0
KTH1 140757Z 18006KT 29/15 A2986 RMK A01 T02850147  RH  043%=      5-min Rain = 0
KTH1 140758Z 18007KT 29/15 A2986 RMK A01 T02850147  RH  043%=      5-min Rain = 0
KTH1 140759Z 19006KT 29/15 A2986 RMK A01 T02850147  RH  043%=      5-min Rain = 0
KTH1 140800Z 19006KT 29/15 A2986 RMK A01 T02860147  RH  043%=      5-min Rain = 0
KTH1 140801Z 18006KT 29/15 A2986 RMK A01 T02850147  RH  043%=      5-min Rain = 0
KTH1 140802Z 18006KT 29/15 A2986 RMK A01 T02860147  RH  043%=      5-min Rain = 0
KTH1 140803Z 18006KT 29/15 A2986 RMK A01 T02860146  RH  043%=      5-min Rain = 0
KTH1 140804Z 18006KT 29/15 A2986 RMK A01 T02860147  RH  043%=      5-min Rain = 0
KTH1 140805Z 18006KT 29/15 A2986 RMK A01 T02860147  RH  043%=      5-min Rain = 0
KTH1 140806Z 18006KT 29/15 A2987 RMK A01 T02860147  RH  043%=      5-min Rain = 0
KTH1 140807Z 18006KT 29/15 A2987 RMK A01 T02860147  RH  043%=      5-min Rain = 0
KTH1 140808Z 18007KT 29/15 A2987 RMK A01 T02860147  RH  043%=      5-min Rain = 0
KTH1 140809Z 18006KT 29/15 A2987 RMK A01 T02860147  RH  043%=      5-min Rain = 0
KTH1 140810Z 18006KT 29/15 A2987 RMK A01 T02850147  RH  043%=      5-min Rain = 0
KTH1 140811Z 18007KT 29/15 A2987 RMK A01 T02850148  RH  043%=      5-min Rain = 0
KTH1 140812Z 18006KT 29/15 A2987 RMK A01 T02850147  RH  043%=      5-min Rain = 0
KTH1 140813Z 18007KT 29/15 A2987 RMK A01 T02850147  RH  043%=      5-min Rain = 0
KTH1 140814Z 18007KT 29/15 A2987 RMK A01 T02850147  RH  043%=      5-min Rain = 0
KTH1 140815Z 18006KT 29/15 A2987 RMK A01 T02850147  RH  043%=      5-min Rain = 0
KTH1 140816Z 18007KT 29/15 A2986 RMK A01 T02850147  RH  043%=      5-min Rain = 0
KTH1 140817Z 18006KT 29/15 A2986 RMK A01 T02850148  RH  043%=      5-min Rain = 0
KTH1 140818Z 18006KT 29/15 A2986 RMK A01 T02850147  RH  043%=      5-min Rain = 0
KTH1 140819Z 18006KT 29/15 A2986 RMK A01 T02850148  RH  043%=      5-min Rain = 0
KTH1 140820Z 18007KT 29/15 A2986 RMK A01 T02850148  RH  043%=      5-min Rain = 0
KTH1 140821Z 18007KT 29/15 A2986 RMK A01 T02850148  RH  043%=      5-min Rain = 0
KTH1 140822Z 18005KT 29/15 A2986 RMK A01 T02850148  RH  043%=      5-min Rain = 0
KTH1 140823Z 18006KT 28/15 A2986 RMK A01 T02840148  RH  043%=      5-min Rain = 0
KTH1 140824Z 18005KT 28/15 A2986 RMK A01 T02840148  RH  043%=      5-min Rain = 0
KTH1 140825Z 18007KT 28/15 A2986 RMK A01 T02840148  RH  044%=      5-min Rain = 0
KTH1 140826Z 18006KT 28/15 A2986 RMK A01 T02840148  RH  044%=      5-min Rain = 0
KTH1 140827Z 18005KT 28/15 A2986 RMK A01 T02830148  RH  044%=      5-min Rain = 0
KTH1 140828Z 18006KT 28/15 A2986 RMK A01 T02830148  RH  044%=      5-min Rain = 0
KTH1 140829Z 18005KT 28/15 A2986 RMK A01 T02830148  RH  044%=      5-min Rain = 0
KTH1 140830Z 18006KT 28/15 A2986 RMK A01 T02830148  RH  044%=      5-min Rain = 0
KTH1 140831Z 18006KT 28/15 A2986 RMK A01 T02830148  RH  044%=      5-min Rain = 0
KTH1 140832Z 18005KT 28/15 A2986 RMK A01 T02830149  RH  044%=      5-min Rain = 0
KTH1 140833Z 19006KT 28/15 A2986 RMK A01 T02830149  RH  044%=      5-min Rain = 0
KTH1 140834Z 18007KT 28/15 A2986 RMK A01 T02830148  RH  044%=      5-min Rain = 0
KTH1 140835Z 19006KT 28/15 A2986 RMK A01 T02830148  RH  044%=      5-min Rain = 0
KTH1 140836Z 18006KT 28/15 A2986 RMK A01 T02830149  RH  044%=      5-min Rain = 0
KTH1 140837Z 18007KT 28/15 A2986 RMK A01 T02830149  RH  044%=      5-min Rain = 0
KTH1 140838Z 19006KT 28/15 A2986 RMK A01 T02830149  RH  044%=      5-min Rain = 0
KTH1 140839Z 18006KT 28/15 A2986 RMK A01 T02820149  RH  044%=      5-min Rain = 0
KTH1 140840Z 18005KT 28/15 A2986 RMK A01 T02820149  RH  044%=      5-min Rain = 0
KTH1 140841Z 19007KT 28/15 A2986 RMK A01 T02820149  RH  044%=      5-min Rain = 0
KTH1 140842Z 19006KT 28/15 A2986 RMK A01 T02820149  RH  044%=      5-min Rain = 0
KTH1 140843Z 19006KT 28/15 A2986 RMK A01 T02820149  RH  044%=      5-min Rain = 0
KTH1 140844Z 20006KT 28/15 A2986 RMK A01 T02820149  RH  044%=      5-min Rain = 0
KTH1 140845Z 19007KT 28/15 A2986 RMK A01 T02830150  RH  044%=      5-min Rain = 0
KTH1 140846Z 18007KT 28/15 A2986 RMK A01 T02830150  RH  044%=      5-min Rain = 0
KTH1 140847Z 19005KT 28/15 A2986 RMK A01 T02840149  RH  044%=      5-min Rain = 0
KTH1 140848Z 19007KT 28/15 A2986 RMK A01 T02840149  RH  044%=      5-min Rain = 0
KTH1 140849Z 20007KT 29/15 A2986 RMK A01 T02850150  RH  044%=      5-min Rain = 0
KTH1 140850Z 19007KT 29/15 A2986 RMK A01 T02860150  RH  044%=      5-min Rain = 0
KTH1 140851Z 19006KT 29/15 A2986 RMK A01 T02860150  RH  043%=      5-min Rain = 0
KTH1 140852Z 19006KT 29/15 A2986 RMK A01 T02860150  RH  043%=      5-min Rain = 0
KTH1 140853Z 19006KT 29/15 A2986 RMK A01 T02870150  RH  043%=      5-min Rain = 0
KTH1 140854Z 19007KT 29/15 A2986 RMK A01 T02870150  RH  043%=      5-min Rain = 0
KTH1 140855Z 19006KT 29/15 A2986 RMK A01 T02880150  RH  043%=      5-min Rain = 0
KTH1 140856Z 19008KT 29/15 A2986 RMK A01 T02880150  RH  043%=      5-min Rain = 0
KTH1 140857Z 20006KT 29/15 A2986 RMK A01 T02890151  RH  043%=      5-min Rain = 0
KTH1 140858Z 19008KT 29/15 A2986 RMK A01 T02900151  RH  043%=      5-min Rain = 0
KTH1 140859Z 19008KT 29/15 A2986 RMK A01 T02910151  RH  043%=      5-min Rain = 0
KTH1 140900Z 19007KT 29/15 A2986 RMK A01 T02910151  RH  042%=      5-min Rain = 0
KTH1 140901Z 20008KT 29/15 A2986 RMK A01 T02910150  RH  042%=      5-min Rain = 0
KTH1 140902Z 20008KT 29/15 A2986 RMK A01 T02920151  RH  042%=      5-min Rain = 0
KTH1 140903Z 20007KT 29/15 A2986 RMK A01 T02930151  RH  042%=      5-min Rain = 0
KTH1 140904Z 19007G12KT 29/15 A2986 RMK A01 T02930151  RH  042%=      5-min Rain = 0
KTH1 140905Z 19007KT 29/15 A2986 RMK A01 T02930151  RH  042%=      5-min Rain = 0
KTH1 140906Z 19009G14KT 29/15 A2986 RMK A01 T02930151  RH  042%=      5-min Rain = 0
KTH1 140907Z 20008KT 29/15 A2986 RMK A01 T02940151  RH  042%=      5-min Rain = 0
KTH1 140908Z 20007KT 29/15 A2986 RMK A01 T02940151  RH  042%=      5-min Rain = 0
KTH1 140909Z 19007KT 30/15 A2986 RMK A01 T02950152  RH  042%=      5-min Rain = 0
KTH1 140910Z 20008KT 30/15 A2986 RMK A01 T02950151  RH  042%=      5-min Rain = 0
KTH1 140911Z 20006G11KT 30/15 A2986 RMK A01 T02950151  RH  042%=      5-min Rain = 0
KTH1 140912Z 19007KT 30/15 A2986 RMK A01 T02950151  RH  042%=      5-min Rain = 0
KTH1 140913Z 19008KT 29/15 A2986 RMK A01 T02940151  RH  042%=      5-min Rain = 0
KTH1 140914Z 19007KT 29/15 A2986 RMK A01 T02940151  RH  042%=      5-min Rain = 0
KTH1 140915Z 19008KT 29/15 A2986 RMK A01 T02940151  RH  042%=      5-min Rain = 0
KTH1 140916Z 19007KT 29/15 A2986 RMK A01 T02940151  RH  042%=      5-min Rain = 0
KTH1 140917Z 19007KT 29/15 A2986 RMK A01 T02940151  RH  042%=      5-min Rain = 0
KTH1 140918Z 19008KT 29/15 A2986 RMK A01 T02940151  RH  042%=      5-min Rain = 0
KTH1 140919Z 20007KT 29/15 A2985 RMK A01 T02930151  RH  042%=      5-min Rain = 0
KTH1 140920Z 19007KT 29/15 A2985 RMK A01 T02930151  RH  042%=      5-min Rain = 0
KTH1 140921Z 19007KT 29/15 A2985 RMK A01 T02930151  RH  042%=      5-min Rain = 0
KTH1 140922Z 20008KT 29/15 A2985 RMK A01 T02920151  RH  042%=      5-min Rain = 0
KTH1 140923Z 20009KT 29/15 A2985 RMK A01 T02920151  RH  042%=      5-min Rain = 0
KTH1 140924Z 19006KT 29/15 A2985 RMK A01 T02920151  RH  042%=      5-min Rain = 0
KTH1 140925Z 19006KT 29/15 A2985 RMK A01 T02920151  RH  042%=      5-min Rain = 0
KTH1 140926Z 19007KT 29/15 A2985 RMK A01 T02920151  RH  042%=      5-min Rain = 0
KTH1 140927Z 19009G14KT 29/15 A2985 RMK A01 T02920151  RH  042%=      5-min Rain = 0
KTH1 140928Z 20008KT 29/15 A2985 RMK A01 T02920151  RH  042%=      5-min Rain = 0
KTH1 140929Z 19008KT 29/15 A2985 RMK A01 T02920151  RH  042%=      5-min Rain = 0
KTH1 140930Z 20008G13KT 29/15 A2985 RMK A01 T02920151  RH  042%=      5-min Rain = 0
KTH1 140931Z 19007KT 29/15 A2985 RMK A01 T02910151  RH  042%=      5-min Rain = 0
KTH1 140932Z 19007KT 29/15 A2985 RMK A01 T02910151  RH  043%=      5-min Rain = 0
KTH1 140933Z 19007KT 29/15 A2985 RMK A01 T02910151  RH  043%=      5-min Rain = 0
KTH1 140934Z 20007KT 29/15 A2985 RMK A01 T02910151  RH  043%=      5-min Rain = 0
KTH1 140935Z 20007G13KT 29/15 A2985 RMK A01 T02900151  RH  043%=      5-min Rain = 0
KTH1 140936Z 20009KT 29/15 A2985 RMK A01 T02910151  RH  043%=      5-min Rain = 0
KTH1 140937Z 20006G11KT 29/15 A2985 RMK A01 T02900151  RH  043%=      5-min Rain = 0
KTH1 140938Z 19007G13KT 29/15 A2985 RMK A01 T02900151  RH  043%=      5-min Rain = 0
KTH1 140939Z 20008KT 29/15 A2985 RMK A01 T02900151  RH  043%=      5-min Rain = 0
KTH1 140940Z 20005KT 29/15 A2985 RMK A01 T02900151  RH  043%=      5-min Rain = 0
KTH1 140941Z 20007KT 29/15 A2985 RMK A01 T02890151  RH  043%=      5-min Rain = 0
KTH1 140942Z 19006KT 29/15 A2985 RMK A01 T02890151  RH  043%=      5-min Rain = 0
KTH1 140943Z 19008KT 29/15 A2985 RMK A01 T02880151  RH  043%=      5-min Rain = 0
KTH1 140944Z 19007KT 29/15 A2985 RMK A01 T02890152  RH  043%=      5-min Rain = 0
KTH1 140945Z 20008KT 29/15 A2985 RMK A01 T02880151  RH  043%=      5-min Rain = 0
KTH1 140946Z 20009KT 29/15 A2985 RMK A01 T02880151  RH  043%=      5-min Rain = 0
KTH1 140947Z 19008KT 29/15 A2985 RMK A01 T02870151  RH  043%=      5-min Rain = 0
KTH1 140948Z 20007KT 29/15 A2985 RMK A01 T02870151  RH  044%=      5-min Rain = 0
KTH1 140949Z 20007KT 29/15 A2985 RMK A01 T02860151  RH  044%=      5-min Rain = 0
KTH1 140950Z 20008KT 29/15 A2985 RMK A01 T02850151  RH  044%=      5-min Rain = 0
KTH1 140951Z 20007G12KT 29/15 A2985 RMK A01 T02850151  RH  044%=      5-min Rain = 0
KTH1 140952Z 20008KT 28/15 A2985 RMK A01 T02840151  RH  044%=      5-min Rain = 0
KTH1 140953Z 20008KT 28/15 A2985 RMK A01 T02830151  RH  045%=      5-min Rain = 0
KTH1 140954Z 20005KT 28/15 A2985 RMK A01 T02820151  RH  045%=      5-min Rain = 0
KTH1 140955Z 20007KT 28/15 A2985 RMK A01 T02820151  RH  045%=      5-min Rain = 0
KTH1 140956Z 20006KT 28/15 A2985 RMK A01 T02820151  RH  045%=      5-min Rain = 0
KTH1 140957Z 19007KT 28/15 A2985 RMK A01 T02810151  RH  045%=      5-min Rain = 0
KTH1 140958Z 19006KT 28/15 A2985 RMK A01 T02810151  RH  045%=      5-min Rain = 0
KTH1 140959Z 20007KT 28/15 A2985 RMK A01 T02810151  RH  045%=      5-min Rain = 0
KTH1 141000Z 20008KT 28/15 A2985 RMK A01 T02810151  RH  045%=      5-min Rain = 0
KTH1 141001Z 20007KT 28/15 A2985 RMK A01 T02810151  RH  045%=      5-min Rain = 0
KTH1 141002Z 20008KT 28/15 A2985 RMK A01 T02810151  RH  045%=      5-min Rain = 0
KTH1 141003Z 20007KT 28/15 A2985 RMK A01 T02810151  RH  045%=      5-min Rain = 0
KTH1 141004Z 21007KT 28/15 A2985 RMK A01 T02820151  RH  045%=      5-min Rain = 0
KTH1 141005Z 20007KT 28/15 A2985 RMK A01 T02820151  RH  045%=      5-min Rain = 0
KTH1 141006Z 20005KT 28/15 A2985 RMK A01 T02820151  RH  045%=      5-min Rain = 0
KTH1 141007Z 21005G10KT 28/15 A2985 RMK A01 T02820151  RH  045%=      5-min Rain = 0
KTH1 141008Z 21007KT 28/15 A2985 RMK A01 T02810152  RH  045%=      5-min Rain = 0
KTH1 141009Z 21007KT 28/15 A2985 RMK A01 T02800151  RH  045%=      5-min Rain = 0
KTH1 141010Z 20005KT 28/15 A2985 RMK A01 T02810152  RH  045%=      5-min Rain = 0
KTH1 141011Z 21005KT 28/15 A2985 RMK A01 T02800152  RH  046%=      5-min Rain = 0
KTH1 141012Z 20005G10KT 28/15 A2985 RMK A01 T02790151  RH  046%=      5-min Rain = 0
KTH1 141013Z 20006KT 28/15 A2985 RMK A01 T02780151  RH  046%=      5-min Rain = 0
KTH1 141014Z 21007KT 28/15 A2985 RMK A01 T02780151  RH  046%=      5-min Rain = 0
KTH1 141015Z 20006KT 28/15 A2985 RMK A01 T02780151  RH  046%=      5-min Rain = 0
KTH1 141016Z 20006KT 28/15 A2985 RMK A01 T02780151  RH  046%=      5-min Rain = 0
KTH1 141017Z 20006KT 28/15 A2985 RMK A01 T02780152  RH  046%=      5-min Rain = 0
KTH1 141018Z 20008KT 28/15 A2985 RMK A01 T02770151  RH  046%=      5-min Rain = 0
KTH1 141019Z 20006KT 28/15 A2985 RMK A01 T02770151  RH  046%=      5-min Rain = 0
KTH1 141020Z 20008KT 28/15 A2985 RMK A01 T02770151  RH  046%=      5-min Rain = 0
KTH1 141021Z 21006KT 28/15 A2985 RMK A01 T02780151  RH  046%=      5-min Rain = 0
KTH1 141022Z 20008KT 28/15 A2985 RMK A01 T02790152  RH  046%=      5-min Rain = 0
KTH1 141023Z 20008KT 28/15 A2985 RMK A01 T02790151  RH  046%=      5-min Rain = 0
KTH1 141024Z 20006KT 28/15 A2985 RMK A01 T02790152  RH  046%=      5-min Rain = 0
KTH1 141025Z 20008KT 28/15 A2985 RMK A01 T02790152  RH  046%=      5-min Rain = 0
KTH1 141026Z 19008KT 28/15 A2985 RMK A01 T02790152  RH  046%=      5-min Rain = 0
KTH1 141027Z 19008KT 28/15 A2985 RMK A01 T02790152  RH  046%=      5-min Rain = 0
KTH1 141028Z 19008KT 28/15 A2985 RMK A01 T02790152  RH  046%=      5-min Rain = 0
KTH1 141029Z 19008KT 28/15 A2985 RMK A01 T02790151  RH  046%=      5-min Rain = 0
KTH1 141030Z 19007KT 28/15 A2985 RMK A01 T02800152  RH  046%=      5-min Rain = 0
KTH1 141031Z 19007KT 28/15 A2985 RMK A01 T02790152  RH  046%=      5-min Rain = 0
KTH1 141032Z 19009KT 28/15 A2985 RMK A01 T02790152  RH  046%=      5-min Rain = 0
KTH1 141033Z 19009KT 28/15 A2985 RMK A01 T02790152  RH  046%=      5-min Rain = 0
KTH1 141034Z 19006G11KT 28/15 A2985 RMK A01 T02790152  RH  046%=      5-min Rain = 0
KTH1 141035Z 20008KT 28/15 A2985 RMK A01 T02790152  RH  046%=      5-min Rain = 0
KTH1 141036Z 19008KT 28/15 A2985 RMK A01 T02780152  RH  046%=      5-min Rain = 0
KTH1 141037Z 19005KT 28/15 A2985 RMK A01 T02780152  RH  046%=      5-min Rain = 0
KTH1 141038Z 19005KT 28/15 A2985 RMK A01 T02770152  RH  046%=      5-min Rain = 0
KTH1 141039Z 19006KT 28/15 A2985 RMK A01 T02760152  RH  047%=      5-min Rain = 0
KTH1 141040Z 19007KT 28/15 A2985 RMK A01 T02750152  RH  047%=      5-min Rain = 0
KTH1 141041Z 20007KT 28/15 A2985 RMK A01 T02750152  RH  047%=      5-min Rain = 0
KTH1 141042Z 20007KT 27/15 A2985 RMK A01 T02740152  RH  047%=      5-min Rain = 0
KTH1 141043Z 20005KT 27/15 A2985 RMK A01 T02740152  RH  047%=      5-min Rain = 0
KTH1 141044Z 19006KT 27/15 A2985 RMK A01 T02740152  RH  047%=      5-min Rain = 0
KTH1 141045Z 19006KT 27/15 A2985 RMK A01 T02730152  RH  047%=      5-min Rain = 0
KTH1 141046Z 20008KT 27/15 A2985 RMK A01 T02730151  RH  047%=      5-min Rain = 0
KTH1 141047Z 20007KT 27/15 A2985 RMK A01 T02740152  RH  047%=      5-min Rain = 0
KTH1 141048Z 20008KT 27/15 A2985 RMK A01 T02740152  RH  047%=      5-min Rain = 0
KTH1 141049Z 20006KT 28/15 A2985 RMK A01 T02750152  RH  047%=      5-min Rain = 0
KTH1 141050Z 20006KT 28/15 A2985 RMK A01 T02760152  RH  047%=      5-min Rain = 0
KTH1 141051Z 20008KT 28/15 A2985 RMK A01 T02760152  RH  047%=      5-min Rain = 0
KTH1 141052Z 21006KT 28/15 A2985 RMK A01 T02770152  RH  046%=      5-min Rain = 0
KTH1 141053Z 20006KT 28/15 A2985 RMK A01 T02780153  RH  046%=      5-min Rain = 0
KTH1 141054Z 21005KT 28/15 A2985 RMK A01 T02780152  RH  046%=      5-min Rain = 0
KTH1 141055Z 20004KT 28/15 A2986 RMK A01 T02780153  RH  046%=      5-min Rain = 0
KTH1 141056Z 20006KT 28/15 A2986 RMK A01 T02780153  RH  046%=      5-min Rain = 0
KTH1 141057Z 20005KT 28/15 A2986 RMK A01 T02770152  RH  047%=      5-min Rain = 0
KTH1 141058Z 20005KT 28/15 A2986 RMK A01 T02760152  RH  047%=      5-min Rain = 0
KTH1 141059Z 20005KT 28/15 A2986 RMK A01 T02760152  RH  047%=      5-min Rain = 0
KTH1 141100Z 20006KT 28/15 A2986 RMK A01 T02750153  RH  047%=      5-min Rain = 0
KTH1 141101Z 20005KT 28/15 A2986 RMK A01 T02750152  RH  047%=      5-min Rain = 0
KTH1 141102Z 20005KT 28/15 A2986 RMK A01 T02750152  RH  047%=      5-min Rain = 0
KTH1 141103Z 19004KT 27/15 A2986 RMK A01 T02740153  RH  047%=      5-min Rain = 0
KTH1 141104Z 19004KT 27/15 A2986 RMK A01 T02730152  RH  048%=      5-min Rain = 0
KTH1 141105Z 19004KT 27/15 A2986 RMK A01 T02720152  RH  048%=      5-min Rain = 0
KTH1 141106Z 19003KT 27/15 A2986 RMK A01 T02720152  RH  048%=      5-min Rain = 0
KTH1 141107Z 20004KT 27/15 A2986 RMK A01 T02710153  RH  048%=      5-min Rain = 0
KTH1 141108Z 19004KT 27/15 A2986 RMK A01 T02700153  RH  048%=      5-min Rain = 0
KTH1 141109Z 19003KT 27/15 A2986 RMK A01 T02700152  RH  049%=      5-min Rain = 0
KTH1 141110Z 19003KT 27/15 A2986 RMK A01 T02690153  RH  049%=      5-min Rain = 0
KTH1 141111Z 20004KT 27/15 A2986 RMK A01 T02690153  RH  049%=      5-min Rain = 0
KTH1 141112Z 20003KT 27/15 A2986 RMK A01 T02680153  RH  049%=      5-min Rain = 0
KTH1 141113Z 21003KT 27/15 A2986 RMK A01 T02670152  RH  049%=      5-min Rain = 0
KTH1 141114Z 21003KT 27/15 A2986 RMK A01 T02670153  RH  050%=      5-min Rain = 0
KTH1 141115Z 21003KT 27/15 A2986 RMK A01 T02660153  RH  050%=      5-min Rain = 0
KTH1 141116Z 22001KT 27/15 A2986 RMK A01 T02660153  RH  050%=      5-min Rain = 0
KTH1 141117Z 22002KT 27/15 A2986 RMK A01 T02650154  RH  050%=      5-min Rain = 0
KTH1 141118Z 23004KT 27/15 A2986 RMK A01 T02650153  RH  050%=      5-min Rain = 0
KTH1 141119Z 23003KT 27/16 A2986 RMK A01 T02650156  RH  051%=      5-min Rain = 0
KTH1 141120Z 23003KT 27/16 A2986 RMK A01 T02650155  RH  051%=      5-min Rain = 0
KTH1 141121Z 23003KT 27/16 A2986 RMK A01 T02650155  RH  051%=      5-min Rain = 0
KTH1 141122Z 24003KT 26/15 A2986 RMK A01 T02640154  RH  051%=      5-min Rain = 0
KTH1 141123Z 25002KT 26/15 A2986 RMK A01 T02640154  RH  051%=      5-min Rain = 0
KTH1 141124Z 24002KT 26/16 A2986 RMK A01 T02640156  RH  051%=      5-min Rain = 0
KTH1 141125Z 24003KT 26/16 A2986 RMK A01 T02640156  RH  052%=      5-min Rain = 0
KTH1 141126Z 25002KT 26/16 A2986 RMK A01 T02640157  RH  052%=      5-min Rain = 0
KTH1 141127Z 25002KT 26/16 A2987 RMK A01 T02640158  RH  052%=      5-min Rain = 0
KTH1 141128Z 26002KT 26/16 A2987 RMK A01 T02630159  RH  053%=      5-min Rain = 0
KTH1 141129Z 25001KT 26/16 A2987 RMK A01 T02620161  RH  054%=      5-min Rain = 0
KTH1 141130Z 25001KT 26/16 A2987 RMK A01 T02620160  RH  053%=      5-min Rain = 0
KTH1 141131Z 24001KT 26/16 A2987 RMK A01 T02620160  RH  053%=      5-min Rain = 0
KTH1 141132Z 23001KT 26/16 A2987 RMK A01 T02610161  RH  054%=      5-min Rain = 0
KTH1 141133Z 24001KT 26/16 A2987 RMK A01 T02610160  RH  054%=      5-min Rain = 0
KTH1 141134Z 24002KT 26/16 A2987 RMK A01 T02610160  RH  054%=      5-min Rain = 0
KTH1 141135Z 25001KT 26/16 A2987 RMK A01 T02600161  RH  054%=      5-min Rain = 0
KTH1 141136Z 23002KT 26/16 A2987 RMK A01 T02600161  RH  054%=      5-min Rain = 0
KTH1 141137Z 23002KT 26/16 A2987 RMK A01 T02600160  RH  054%=      5-min Rain = 0
KTH1 141138Z 22002KT 26/16 A2987 RMK A01 T02600160  RH  054%=      5-min Rain = 0
KTH1 141139Z 22003KT 26/16 A2987 RMK A01 T02590159  RH  054%=      5-min Rain = 0
KTH1 141140Z 22003KT 26/16 A2987 RMK A01 T02590158  RH  054%=      5-min Rain = 0
KTH1 141141Z 22003KT 26/16 A2987 RMK A01 T02580158  RH  054%=      5-min Rain = 0
KTH1 141142Z 22003KT 26/16 A2987 RMK A01 T02580157  RH  054%=      5-min Rain = 0
KTH1 141143Z 22002KT 26/16 A2987 RMK A01 T02570156  RH  054%=      5-min Rain = 0
KTH1 141144Z 22002KT 26/16 A2987 RMK A01 T02570156  RH  054%=      5-min Rain = 0
KTH1 141145Z 22002KT 26/16 A2988 RMK A01 T02560155  RH  054%=      5-min Rain = 0
KTH1 141146Z 22002KT 26/16 A2988 RMK A01 T02560155  RH  054%=      5-min Rain = 0
KTH1 141147Z 21002KT 26/16 A2988 RMK A01 T02550155  RH  054%=      5-min Rain = 0
KTH1 141148Z 21002KT 26/15 A2988 RMK A01 T02550154  RH  054%=      5-min Rain = 0
KTH1 141149Z 21002KT 25/15 A2988 RMK A01 T02540154  RH  054%=      5-min Rain = 0
KTH1 141150Z 21002KT 25/15 A2988 RMK A01 T02540154  RH  054%=      5-min Rain = 0
KTH1 141151Z 20002KT 25/15 A2988 RMK A01 T02530154  RH  054%=      5-min Rain = 0
KTH1 141152Z 19002KT 25/15 A2988 RMK A01 T02530154  RH  054%=      5-min Rain = 0
KTH1 141153Z 18002KT 25/15 A2988 RMK A01 T02520153  RH  054%=      5-min Rain = 0
KTH1 141154Z 18002KT 25/15 A2988 RMK A01 T02510153  RH  054%=      5-min Rain = 0
KTH1 141155Z 17001KT 25/15 A2988 RMK A01 T02510154  RH  055%=      5-min Rain = 0
KTH1 141156Z 17002KT 25/15 A2988 RMK A01 T02490154  RH  055%=      5-min Rain = 0
KTH1 141157Z 16002KT 25/15 A2988 RMK A01 T02490154  RH  056%=      5-min Rain = 0
KTH1 141158Z 15002KT 25/15 A2988 RMK A01 T02470154  RH  056%=      5-min Rain = 0
KTH1 141159Z 15002KT 25/15 A2988 RMK A01 T02470154  RH  056%=      5-min Rain = 0
KTH1 141200Z 15001KT 25/15 A2988 RMK A01 T02460154  RH  056%=      5-min Rain = 0
KTH1 141201Z 00000KT 25/15 A2988 RMK A01 T02450154  RH  057%=      5-min Rain = 0
KTH1 141202Z 00000KT 25/15 A2989 RMK A01 T02450154  RH  057%=      5-min Rain = 0
KTH1 141203Z 00000KT 25/15 A2989 RMK A01 T02450154  RH  057%=      5-min Rain = 0
KTH1 141204Z 11000KT 25/15 A2989 RMK A01 T02450154  RH  057%=      5-min Rain = 0
KTH1 141205Z 00000KT 24/15 A2989 RMK A01 T02440154  RH  057%=      5-min Rain = 0
KTH1 141206Z 00000KT 24/16 A2989 RMK A01 T02440155  RH  057%=      5-min Rain = 0
KTH1 141207Z 00000KT 24/16 A2989 RMK A01 T02440155  RH  057%=      5-min Rain = 0
KTH1 141208Z 00000KT 24/16 A2989 RMK A01 T02440155  RH  057%=      5-min Rain = 0
KTH1 141209Z 00000KT 24/16 A2989 RMK A01 T02440155  RH  057%=      5-min Rain = 0
KTH1 141210Z 00000KT 24/16 A2989 RMK A01 T02440155  RH  057%=      5-min Rain = 0
KTH1 141211Z 00000KT 24/15 A2989 RMK A01 T02440154  RH  057%=      5-min Rain = 0
KTH1 141212Z 00000KT 24/15 A2989 RMK A01 T02440154  RH  057%=      5-min Rain = 0
KTH1 141213Z 00000KT 24/15 A2989 RMK A01 T02440154  RH  057%=      5-min Rain = 0
KTH1 141214Z 00000KT 24/16 A2989 RMK A01 T02440157  RH  058%=      5-min Rain = 0
KTH1 141215Z 00000KT 24/16 A2989 RMK A01 T02430160  RH  060%=      5-min Rain = 0
KTH1 141216Z 00000KT 24/16 A2989 RMK A01 T02410159  RH  060%=      5-min Rain = 0
KTH1 141217Z 19000KT 24/16 A2989 RMK A01 T02400157  RH  059%=      5-min Rain = 0
KTH1 141218Z 00000KT 24/16 A2989 RMK A01 T02400156  RH  059%=      5-min Rain = 0
KTH1 141219Z 00000KT 24/16 A2989 RMK A01 T02400156  RH  059%=      5-min Rain = 0
KTH1 141220Z 00000KT 24/16 A2989 RMK A01 T02400156  RH  059%=      5-min Rain = 0
KTH1 141221Z 00000KT 24/16 A2989 RMK A01 T02400155  RH  059%=      5-min Rain = 0
KTH1 141222Z 00000KT 24/15 A2989 RMK A01 T02410154  RH  058%=      5-min Rain = 0
KTH1 141223Z 00000KT 24/15 A2989 RMK A01 T02420154  RH  058%=      5-min Rain = 0
KTH1 141224Z 00000KT 24/16 A2989 RMK A01 T02430155  RH  058%=      5-min Rain = 0
KTH1 141225Z 00000KT 24/16 A2989 RMK A01 T02430158  RH  059%=      5-min Rain = 0
KTH1 141226Z 00000KT 24/16 A2989 RMK A01 T02430159  RH  059%=      5-min Rain = 0
KTH1 141227Z 00000KT 24/16 A2989 RMK A01 T02430159  RH  059%=      5-min Rain = 0
KTH1 141228Z 00000KT 24/16 A2989 RMK A01 T02430158  RH  059%=      5-min Rain = 0
KTH1 141229Z 00000KT 24/16 A2989 RMK A01 T02430157  RH  059%=      5-min Rain = 0
KTH1 141230Z 23000KT 24/16 A299 RMK A01 T02430157  RH  059%=      5-min Rain = 0
KTH1 141231Z 00000KT 24/16 A299 RMK A01 T02430158  RH  059%=      5-min Rain = 0
KTH1 141232Z 00000KT 24/16 A299 RMK A01 T02440158  RH  059%=      5-min Rain = 0
KTH1 141233Z 00000KT 24/16 A299 RMK A01 T02440157  RH  058%=      5-min Rain = 0
KTH1 141234Z 24000KT 25/16 A299 RMK A01 T02450157  RH  058%=      5-min Rain = 0
KTH1 141235Z 00000KT 25/16 A299 RMK A01 T02460156  RH  057%=      5-min Rain = 0
KTH1 141236Z 00000KT 25/16 A299 RMK A01 T02470158  RH  058%=      5-min Rain = 0
KTH1 141237Z 00000KT 25/16 A299 RMK A01 T02480158  RH  057%=      5-min Rain = 0
KTH1 141238Z 30000KT 25/16 A299 RMK A01 T02490157  RH  057%=      5-min Rain = 0
KTH1 141239Z 30001KT 25/16 A299 RMK A01 T02490157  RH  057%=      5-min Rain = 0
KTH1 141240Z 00000KT 25/16 A299 RMK A01 T02490160  RH  058%=      5-min Rain = 0
KTH1 141241Z 00000KT 25/16 A299 RMK A01 T02500163  RH  058%=      5-min Rain = 0
KTH1 141242Z 00000KT 25/17 A299 RMK A01 T02510166  RH  059%=      5-min Rain = 0
KTH1 141243Z 00000KT 25/17 A299 RMK A01 T02510174  RH  063%=      5-min Rain = 0
KTH1 141244Z 00000KT 25/18 A299 RMK A01 T02510180  RH  065%=      5-min Rain = 0
KTH1 141245Z 00000KT 25/17 A299 RMK A01 T02500171  RH  061%=      5-min Rain = 0
KTH1 141246Z 00000KT 25/17 A299 RMK A01 T02510168  RH  060%=      5-min Rain = 0
KTH1 141247Z 00000KT 25/17 A299 RMK A01 T02500174  RH  062%=      5-min Rain = 0
KTH1 141248Z 00000KT 25/18 A299 RMK A01 T02510179  RH  064%=      5-min Rain = 0
KTH1 141249Z 00000KT 25/18 A299 RMK A01 T02510182  RH  065%=      5-min Rain = 0
KTH1 141250Z 00000KT 25/18 A299 RMK A01 T02510177  RH  064%=      5-min Rain = 0
KTH1 141251Z 00000KT 25/19 A299 RMK A01 T02520186  RH  067%=      5-min Rain = 0
KTH1 141252Z 00000KT 25/18 A299 RMK A01 T02520183  RH  066%=      5-min Rain = 0
KTH1 141253Z 00000KT 25/18 A299 RMK A01 T02530184  RH  065%=      5-min Rain = 0
KTH1 141254Z 00000KT 25/18 A299 RMK A01 T02540183  RH  065%=      5-min Rain = 0
KTH1 141255Z 00000KT 25/19 A299 RMK A01 T02540185  RH  065%=      5-min Rain = 0
KTH1 141256Z 00000KT 26/19 A299 RMK A01 T02550187  RH  066%=      5-min Rain = 0
KTH1 141257Z 00000KT 26/19 A299 RMK A01 T02560190  RH  067%=      5-min Rain = 0
KTH1 141258Z 24001KT 26/19 A299 RMK A01 T02560191  RH  067%=      5-min Rain = 0
KTH1 141259Z 25000KT 26/19 A299 RMK A01 T02560191  RH  067%=      5-min Rain = 0
KTH1 141300Z 25001KT 26/19 A2991 RMK A01 T02560186  RH  065%=      5-min Rain = 0
KTH1 141301Z 24001KT 26/18 A2991 RMK A01 T02560181  RH  063%=      5-min Rain = 0
KTH1 141302Z 23001KT 26/18 A2991 RMK A01 T02570178  RH  062%=      5-min Rain = 0
KTH1 141303Z 25000KT 26/17 A2991 RMK A01 T02570174  RH  060%=      5-min Rain = 0
KTH1 141304Z 26001KT 26/17 A2991 RMK A01 T02580174  RH  060%=      5-min Rain = 0
KTH1 141305Z 26002KT 26/17 A2991 RMK A01 T02580172  RH  059%=      5-min Rain = 0
KTH1 141306Z 26001KT 26/17 A2991 RMK A01 T02590174  RH  060%=      5-min Rain = 0
KTH1 141307Z 25002KT 26/18 A2991 RMK A01 T02590176  RH  060%=      5-min Rain = 0
KTH1 141308Z 24002KT 26/17 A2991 RMK A01 T02590172  RH  059%=      5-min Rain = 0
KTH1 141309Z 23002KT 26/17 A2991 RMK A01 T02590172  RH  059%=      5-min Rain = 0
KTH1 141310Z 23002KT 26/17 A2991 RMK A01 T02590169  RH  058%=      5-min Rain = 0
KTH1 141311Z 23002KT 26/17 A2991 RMK A01 T02590167  RH  057%=      5-min Rain = 0
KTH1 141312Z 22001KT 26/17 A2991 RMK A01 T02590166  RH  056%=      5-min Rain = 0
KTH1 141313Z 22002KT 26/17 A2991 RMK A01 T02600166  RH  056%=      5-min Rain = 0
KTH1 141314Z 22001KT 26/17 A2991 RMK A01 T02600165  RH  056%=      5-min Rain = 0
KTH1 141315Z 20001KT 26/17 A2991 RMK A01 T02610168  RH  057%=      5-min Rain = 0
KTH1 141316Z 20002KT 26/17 A2991 RMK A01 T02610166  RH  056%=      5-min Rain = 0
KTH1 141317Z 19001KT 26/17 A2991 RMK A01 T02620168  RH  056%=      5-min Rain = 0
KTH1 141318Z 20003KT 26/17 A2991 RMK A01 T02630168  RH  056%=      5-min Rain = 0
KTH1 141319Z 21003KT 27/17 A2991 RMK A01 T02650166  RH  054%=      5-min Rain = 0
KTH1 141320Z 21002KT 27/17 A2991 RMK A01 T02660166  RH  054%=      5-min Rain = 0
KTH1 141321Z 22002KT 27/17 A2991 RMK A01 T02670167  RH  054%=      5-min Rain = 0
KTH1 141322Z 23002KT 27/17 A2991 RMK A01 T02690168  RH  054%=      5-min Rain = 0
KTH1 141323Z 22002KT 27/17 A2991 RMK A01 T02700169  RH  054%=      5-min Rain = 0
KTH1 141324Z 22002KT 27/17 A2991 RMK A01 T02710172  RH  055%=      5-min Rain = 0
KTH1 141325Z 23002KT 27/17 A2991 RMK A01 T02720172  RH  054%=      5-min Rain = 0
KTH1 141326Z 23002KT 27/17 A2991 RMK A01 T02720172  RH  054%=      5-min Rain = 0
KTH1 141327Z 23003KT 27/17 A2991 RMK A01 T02730172  RH  054%=      5-min Rain = 0
KTH1 141328Z 23003KT 27/17 A2991 RMK A01 T02740173  RH  054%=      5-min Rain = 0
KTH1 141329Z 22002KT 27/17 A2991 RMK A01 T02740172  RH  054%=      5-min Rain = 0
KTH1 141330Z 23002KT 27/17 A2991 RMK A01 T02740174  RH  054%=      5-min Rain = 0
KTH1 141331Z 23003KT 28/17 A2991 RMK A01 T02750173  RH  054%=      5-min Rain = 0
KTH1 141332Z 23003KT 28/17 A2991 RMK A01 T02760172  RH  053%=      5-min Rain = 0
KTH1 141333Z 24003KT 28/17 A2991 RMK A01 T02770173  RH  053%=      5-min Rain = 0
KTH1 141334Z 23004KT 28/17 A2991 RMK A01 T02770173  RH  053%=      5-min Rain = 0
KTH1 141335Z 24005KT 28/17 A2991 RMK A01 T02780172  RH  052%=      5-min Rain = 0
KTH1 141336Z 23005KT 28/17 A2991 RMK A01 T02790170  RH  051%=      5-min Rain = 0
KTH1 141337Z 24005KT 28/17 A2991 RMK A01 T02800170  RH  051%=      5-min Rain = 0
KTH1 141338Z 24005KT 28/17 A2991 RMK A01 T02800171  RH  051%=      5-min Rain = 0
KTH1 141339Z 23007KT 28/17 A2991 RMK A01 T02820170  RH  051%=      5-min Rain = 0
KTH1 141340Z 24004KT 28/17 A2991 RMK A01 T02830170  RH  050%=      5-min Rain = 0
KTH1 141341Z 24006KT 28/17 A2991 RMK A01 T02840172  RH  051%=      5-min Rain = 0
KTH1 141342Z 23006KT 29/17 A2991 RMK A01 T02850173  RH  051%=      5-min Rain = 0
KTH1 141343Z 23006KT 29/17 A2991 RMK A01 T02860173  RH  050%=      5-min Rain = 0
KTH1 141344Z 23007KT 29/17 A2991 RMK A01 T02870172  RH  050%=      5-min Rain = 0
KTH1 141345Z 23006KT 29/17 A2991 RMK A01 T02880172  RH  050%=      5-min Rain = 0
KTH1 141346Z 23005KT 29/17 A2991 RMK A01 T02890173  RH  050%=      5-min Rain = 0
KTH1 141347Z 23008KT 29/17 A2991 RMK A01 T02900172  RH  049%=      5-min Rain = 0
KTH1 141348Z 23007KT 29/17 A2991 RMK A01 T02920169  RH  048%=      5-min Rain = 0
KTH1 141349Z 23012KT 29/17 A2991 RMK A01 T02930166  RH  046%=      5-min Rain = 0
KTH1 141350Z 23007KT 29/17 A2991 RMK A01 T02940166  RH  046%=      5-min Rain = 0
KTH1 141351Z 22009KT 29/17 A2991 RMK A01 T02940167  RH  046%=      5-min Rain = 0
KTH1 141352Z 24009KT 30/17 A2991 RMK A01 T02960169  RH  046%=      5-min Rain = 0
KTH1 141353Z 24008KT 30/17 A2991 RMK A01 T02960170  RH  047%=      5-min Rain = 0
KTH1 141354Z 23010KT 30/17 A2991 RMK A01 T02970170  RH  046%=      5-min Rain = 0
KTH1 141355Z 24011KT 30/17 A2991 RMK A01 T02970167  RH  046%=      5-min Rain = 0
KTH1 141356Z 23010KT 30/17 A2991 RMK A01 T02980168  RH  046%=      5-min Rain = 0
KTH1 141357Z 24009KT 30/17 A2991 RMK A01 T02980169  RH  046%=      5-min Rain = 0
KTH1 141358Z 24009G16KT 30/17 A2991 RMK A01 T02990169  RH  046%=      5-min Rain = 0
KTH1 141359Z 24010KT 30/17 A2991 RMK A01 T03000168  RH  045%=      5-min Rain = 0
KTH1 141400Z 24009KT 30/17 A2991 RMK A01 T03000170  RH  045%=      5-min Rain = 0
KTH1 141401Z 24009KT 30/17 A2991 RMK A01 T03000171  RH  046%=      5-min Rain = 0
KTH1 141402Z 24008G13KT 30/17 A2991 RMK A01 T03010171  RH  046%=      5-min Rain = 0
KTH1 141403Z 24009KT 30/17 A2991 RMK A01 T03020171  RH  045%=      5-min Rain = 0
KTH1 141404Z 24008KT 30/17 A2991 RMK A01 T03020171  RH  045%=      5-min Rain = 0
KTH1 141405Z 25010KT 30/17 A2991 RMK A01 T03020173  RH  046%=      5-min Rain = 0
KTH1 141406Z 24011KT 30/17 A2991 RMK A01 T03030170  RH  045%=      5-min Rain = 0
KTH1 141407Z 24012KT 30/17 A2991 RMK A01 T03030168  RH  044%=      5-min Rain = 0
KTH1 141408Z 24010KT 30/17 A2991 RMK A01 T03030171  RH  045%=      5-min Rain = 0
KTH1 141409Z 24008KT 30/17 A2991 RMK A01 T03040173  RH  045%=      5-min Rain = 0
KTH1 141410Z 24009KT 31/17 A2991 RMK A01 T03050172  RH  045%=      5-min Rain = 0
KTH1 141411Z 24011KT 31/17 A2991 RMK A01 T03060172  RH  045%=      5-min Rain = 0
KTH1 141412Z 24010KT 31/17 A2992 RMK A01 T03060171  RH  044%=      5-min Rain = 0
KTH1 141413Z 24012KT 31/17 A2991 RMK A01 T03070167  RH  043%=      5-min Rain = 0
KTH1 141414Z 24008KT 31/17 A2991 RMK A01 T03070171  RH  044%=      5-min Rain = 0
KTH1 141415Z 24010KT 31/17 A2991 RMK A01 T03080168  RH  043%=      5-min Rain = 0
KTH1 141416Z 24009KT 31/17 A2991 RMK A01 T03080167  RH  043%=      5-min Rain = 0
KTH1 141417Z 24009KT 31/17 A2991 RMK A01 T03090170  RH  043%=      5-min Rain = 0
KTH1 141418Z 23011KT 31/17 A2991 RMK A01 T03100168  RH  043%=      5-min Rain = 0
KTH1 141419Z 23012G17KT 31/17 A2991 RMK A01 T03100165  RH  042%=      5-min Rain = 0
KTH1 141420Z 24007KT 31/17 A2991 RMK A01 T03110166  RH  042%=      5-min Rain = 0
KTH1 141421Z 22008KT 31/17 A2992 RMK A01 T03120167  RH  042%=      5-min Rain = 0
KTH1 141422Z 24008KT 31/17 A2992 RMK A01 T03140169  RH  042%=      5-min Rain = 0
KTH1 141423Z 24009G14KT 32/17 A2992 RMK A01 T03150171  RH  042%=      5-min Rain = 0
KTH1 141424Z 23011KT 32/17 A2992 RMK A01 T03150167  RH  041%=      5-min Rain = 0
KTH1 141425Z 24009KT 32/17 A2992 RMK A01 T03150167  RH  041%=      5-min Rain = 0
KTH1 141426Z 24010KT 31/17 A2992 RMK A01 T03140167  RH  041%=      5-min Rain = 0
KTH1 141427Z 23010KT 32/17 A2992 RMK A01 T03150168  RH  041%=      5-min Rain = 0
KTH1 141428Z 24010KT 32/17 A2992 RMK A01 T03150167  RH  041%=      5-min Rain = 0
KTH1 141429Z 25011KT 32/17 A2991 RMK A01 T03150168  RH  041%=      5-min Rain = 0
KTH1 141430Z 25010KT 32/17 A2992 RMK A01 T03160169  RH  041%=      5-min Rain = 0
KTH1 141431Z 25011G16KT 32/17 A2992 RMK A01 T03160173  RH  042%=      5-min Rain = 0
KTH1 141432Z 24012G17KT 32/17 A2991 RMK A01 T03160169  RH  041%=      5-min Rain = 0
KTH1 141433Z 23011KT 32/16 A2991 RMK A01 T03160164  RH  040%=      5-min Rain = 0
KTH1 141434Z 25010KT 32/17 A2992 RMK A01 T03170166  RH  041%=      5-min Rain = 0
KTH1 141435Z 25013KT 32/17 A2991 RMK A01 T03170171  RH  042%=      5-min Rain = 0
KTH1 141436Z 25013KT 32/18 A2991 RMK A01 T03180175  RH  043%=      5-min Rain = 0
KTH1 141437Z 24012KT 32/17 A2992 RMK A01 T03180174  RH  042%=      5-min Rain = 0
KTH1 141438Z 24013KT 32/17 A2992 RMK A01 T03190173  RH  042%=      5-min Rain = 0
KTH1 141439Z 25011KT 32/17 A2992 RMK A01 T03190168  RH  040%=      5-min Rain = 0
KTH1 141440Z 23009KT 32/17 A2992 RMK A01 T03190169  RH  041%=      5-min Rain = 0
KTH1 141441Z 25013G18KT 32/17 A2991 RMK A01 T03190172  RH  041%=      5-min Rain = 0
KTH1 141442Z 24011KT 32/17 A2992 RMK A01 T03190170  RH  041%=      5-min Rain = 0
KTH1 141443Z 24013KT 32/17 A2992 RMK A01 T03200168  RH  040%=      5-min Rain = 0
KTH1 141444Z 25012KT 32/17 A2991 RMK A01 T03200171  RH  041%=      5-min Rain = 0
KTH1 141445Z 24013G18KT 32/17 A2992 RMK A01 T03200169  RH  040%=      5-min Rain = 0
KTH1 141446Z 24012G19KT 32/17 A2992 RMK A01 T03200168  RH  040%=      5-min Rain = 0
KTH1 141447Z 24016KT 32/17 A2992 RMK A01 T03210167  RH  040%=      5-min Rain = 0
KTH1 141448Z 24013KT 32/17 A2992 RMK A01 T03210168  RH  040%=      5-min Rain = 0
KTH1 141449Z 24014KT 32/17 A2992 RMK A01 T03210165  RH  039%=      5-min Rain = 0
KTH1 141450Z 25011KT 32/17 A2991 RMK A01 T03210167  RH  040%=      5-min Rain = 0
KTH1 141451Z 24009KT 32/17 A2991 RMK A01 T03220170  RH  040%=      5-min Rain = 0
KTH1 141452Z 25011KT 32/17 A2991 RMK A01 T03230173  RH  041%=      5-min Rain = 0
KTH1 141453Z 25015KT 32/17 A2991 RMK A01 T03240174  RH  041%=      5-min Rain = 0
KTH1 141454Z 25015KT 32/18 A2991 RMK A01 T03240175  RH  041%=      5-min Rain = 0
KTH1 141455Z 24013KT 32/17 A2991 RMK A01 T03240173  RH  041%=      5-min Rain = 0
KTH1 141456Z 24013KT 33/17 A2991 RMK A01 T03250167  RH  039%=      5-min Rain = 0
KTH1 141457Z 23012KT 33/17 A2991 RMK A01 T03250167  RH  039%=      5-min Rain = 0
KTH1 141458Z 24011KT 33/17 A2991 RMK A01 T03270166  RH  038%=      5-min Rain = 0
KTH1 141459Z 24011G17KT 33/16 A2991 RMK A01 T03280164  RH  037%=      5-min Rain = 0
KTH1 141500Z 25012KT 33/17 A2991 RMK A01 T03290170  RH  039%=      5-min Rain = 0
KTH1 141501Z 26015KT 33/18 A2991 RMK A01 T03280177  RH  041%=      5-min Rain = 0
KTH1 141502Z 26013KT 33/18 A2991 RMK A01 T03280181  RH  042%=      5-min Rain = 0
KTH1 141503Z 25013KT 33/18 A2991 RMK A01 T03290179  RH  041%=      5-min Rain = 0
KTH1 141504Z 24011G18KT 33/17 A2991 RMK A01 T03280174  RH  040%=      5-min Rain = 0
KTH1 141505Z 25015KT 33/17 A2991 RMK A01 T03290168  RH  038%=      5-min Rain = 0
KTH1 141506Z 25014KT 33/17 A2991 RMK A01 T03290172  RH  039%=      5-min Rain = 0
KTH1 141507Z 25014G19KT 33/17 A2991 RMK A01 T03290174  RH  040%=      5-min Rain = 0
KTH1 141508Z 24017KT 33/17 A2991 RMK A01 T03290171  RH  039%=      5-min Rain = 0
KTH1 141509Z 23013KT 33/17 A2991 RMK A01 T03290167  RH  038%=      5-min Rain = 0
KTH1 141510Z 24014G19KT 33/17 A2991 RMK A01 T03300166  RH  038%=      5-min Rain = 0
KTH1 141511Z 24013KT 33/17 A2991 RMK A01 T03300167  RH  038%=      5-min Rain = 0
KTH1 141512Z 24014KT 33/16 A2991 RMK A01 T03300164  RH  037%=      5-min Rain = 0
KTH1 141513Z 25014KT 33/17 A2991 RMK A01 T03310166  RH  037%=      5-min Rain = 0
KTH1 141514Z 25015KT 33/17 A2991 RMK A01 T03310171  RH  039%=      5-min Rain = 0
KTH1 141515Z 25014KT 33/17 A2991 RMK A01 T03300174  RH  039%=      5-min Rain = 0
KTH1 141516Z 25012KT 33/18 A2991 RMK A01 T03300175  RH  040%=      5-min Rain = 0
KTH1 141517Z 24012KT 33/18 A2991 RMK A01 T03290177  RH  040%=      5-min Rain = 0
KTH1 141518Z 24010KT 33/17 A2991 RMK A01 T03300170  RH  038%=      5-min Rain = 0
KTH1 141519Z 22011KT 33/17 A2991 RMK A01 T03320168  RH  038%=      5-min Rain = 0
KTH1 141520Z 22011KT 34/16 A2991 RMK A01 T03350164  RH  036%=      5-min Rain = 0
KTH1 141521Z 23012KT 34/16 A2991 RMK A01 T03380163  RH  035%=      5-min Rain = 0
KTH1 141522Z 23011G17KT 34/16 A2991 RMK A01 T03380163  RH  035%=      5-min Rain = 0
KTH1 141523Z 23013G18KT 34/16 A2991 RMK A01 T03380164  RH  035%=      5-min Rain = 0
KTH1 141524Z 24010G15KT 34/16 A2991 RMK A01 T03380164  RH  036%=      5-min Rain = 0
KTH1 141525Z 23013KT 34/16 A2991 RMK A01 T03370163  RH  035%=      5-min Rain = 0
KTH1 141526Z 23013G18KT 34/16 A2991 RMK A01 T03370163  RH  035%=      5-min Rain = 0
KTH1 141527Z 22012G17KT 34/16 A2991 RMK A01 T03370162  RH  035%=      5-min Rain = 0
KTH1 141528Z 23014G21KT 34/16 A2991 RMK A01 T03370162  RH  035%=      5-min Rain = 0
KTH1 141529Z 24015KT 34/17 A299 RMK A01 T03390165  RH  035%=      5-min Rain = 0
KTH1 141530Z 24012KT 34/17 A2991 RMK A01 T03380169  RH  037%=      5-min Rain = 0
KTH1 141531Z 24015KT 34/17 A2991 RMK A01 T03370167  RH  036%=      5-min Rain = 0
KTH1 141532Z 24016KT 34/17 A299 RMK A01 T03360167  RH  036%=      5-min Rain = 0
KTH1 141533Z 24014KT 34/17 A2991 RMK A01 T03350166  RH  036%=      5-min Rain = 0
KTH1 141534Z 24013G19KT 34/16 A2991 RMK A01 T03350164  RH  036%=      5-min Rain = 0
KTH1 141535Z 24013G18KT 34/17 A2991 RMK A01 T03360165  RH  036%=      5-min Rain = 0
KTH1 141536Z 24014KT 34/17 A2991 RMK A01 T03370168  RH  037%=      5-min Rain = 0
KTH1 141537Z 24012G17KT 34/17 A2991 RMK A01 T03380167  RH  036%=      5-min Rain = 0
KTH1 141538Z 23009KT 34/17 A2991 RMK A01 T03390166  RH  036%=      5-min Rain = 0
KTH1 141539Z 23010KT 34/17 A2991 RMK A01 T03410167  RH  035%=      5-min Rain = 0
KTH1 141540Z 25010KT 34/17 A2991 RMK A01 T03420166  RH  035%=      5-min Rain = 0
KTH1 141541Z 24014KT 34/17 A2991 RMK A01 T03430170  RH  036%=      5-min Rain = 0
KTH1 141542Z 24011KT 34/17 A2991 RMK A01 T03420168  RH  036%=      5-min Rain = 0
KTH1 141543Z 23012G17KT 34/17 A2991 RMK A01 T03420166  RH  035%=      5-min Rain = 0
KTH1 141544Z 24013G18KT 34/16 A2991 RMK A01 T03430162  RH  034%=      5-min Rain = 0
KTH1 141545Z 24009KT 34/17 A2991 RMK A01 T03430166  RH  035%=      5-min Rain = 0
KTH1 141546Z 23011KT 34/17 A2991 RMK A01 T03440170  RH  035%=      5-min Rain = 0
KTH1 141547Z 23010KT 35/16 A2991 RMK A01 T03460164  RH  034%=      5-min Rain = 0
KTH1 141548Z 22010KT 35/17 A2991 RMK A01 T03470165  RH  034%=      5-min Rain = 0
KTH1 141549Z 24012KT 35/16 A2991 RMK A01 T03490164  RH  033%=      5-min Rain = 0
KTH1 141550Z 25010KT 35/17 A2991 RMK A01 T03480169  RH  034%=      5-min Rain = 0
KTH1 141551Z 23009KT 35/17 A2991 RMK A01 T03470173  RH  036%=      5-min Rain = 0
KTH1 141552Z 23009KT 35/17 A2991 RMK A01 T03480168  RH  034%=      5-min Rain = 0
KTH1 141553Z 25016KT 35/17 A299 RMK A01 T03490170  RH  035%=      5-min Rain = 0
KTH1 141554Z 25016KT 35/18 A299 RMK A01 T03470176  RH  037%=      5-min Rain = 0
KTH1 141555Z 25013KT 35/17 A2991 RMK A01 T03450174  RH  036%=      5-min Rain = 0
KTH1 141556Z 25015KT 35/17 A2991 RMK A01 T03450171  RH  036%=      5-min Rain = 0
KTH1 141557Z 24013KT 35/18 A299 RMK A01 T03450177  RH  037%=      5-min Rain = 0
KTH1 141558Z 25015KT 34/18 A2991 RMK A01 T03430175  RH  037%=      5-min Rain = 0
KTH1 141559Z 25014KT 34/17 A2991 RMK A01 T03430173  RH  036%=      5-min Rain = 0
KTH1 141600Z 25013KT 34/17 A2991 RMK A01 T03440170  RH  035%=      5-min Rain = 0
KTH1 141601Z 25015KT 34/18 A299 RMK A01 T03440176  RH  037%=      5-min Rain = 0
KTH1 141602Z 25014KT 34/18 A2991 RMK A01 T03440179  RH  038%=      5-min Rain = 0
KTH1 141603Z 26011KT 34/18 A2991 RMK A01 T03440179  RH  037%=      5-min Rain = 0
KTH1 141604Z 25012KT 35/18 A2991 RMK A01 T03470179  RH  037%=      5-min Rain = 0
KTH1 141605Z 24011KT 35/18 A2991 RMK A01 T03510178  RH  036%=      5-min Rain = 0
KTH1 141606Z 25012KT 35/18 A2991 RMK A01 T03520178  RH  036%=      5-min Rain = 0
KTH1 141607Z 24013G18KT 35/18 A2991 RMK A01 T03510175  RH  035%=      5-min Rain = 0
KTH1 141608Z 25013KT 35/17 A2991 RMK A01 T03500169  RH  034%=      5-min Rain = 0
KTH1 141609Z 25015KT 35/18 A2991 RMK A01 T03500179  RH  037%=      5-min Rain = 0
KTH1 141610Z 25014KT 35/18 A299 RMK A01 T03480177  RH  036%=      5-min Rain = 0
KTH1 141611Z 24009G15KT 35/18 A299 RMK A01 T03480179  RH  037%=      5-min Rain = 0
KTH1 141612Z 22005KT 35/18 A2991 RMK A01 T03500175  RH  036%=      5-min Rain = 0
KTH1 141613Z 25008KT 36/18 A2991 RMK A01 T03550175  RH  035%=      5-min Rain = 0
KTH1 141614Z 26009KT 36/18 A2991 RMK A01 T03560180  RH  035%=      5-min Rain = 0
KTH1 141615Z 24010G15KT 36/18 A2991 RMK A01 T03570175  RH  034%=      5-min Rain = 0
KTH1 141616Z 25013KT 36/18 A299 RMK A01 T03560175  RH  034%=      5-min Rain = 0
KTH1 141617Z 24013KT 36/18 A299 RMK A01 T03560176  RH  035%=      5-min Rain = 0
KTH1 141618Z 24011KT 36/17 A2991 RMK A01 T03550168  RH  033%=      5-min Rain = 0
KTH1 141619Z 23010KT 35/17 A2991 RMK A01 T03540170  RH  034%=      5-min Rain = 0
KTH1 141620Z 22008KT 35/17 A2991 RMK A01 T03540168  RH  033%=      5-min Rain = 0
KTH1 141621Z 22007G13KT 36/17 A2991 RMK A01 T03580167  RH  032%=      5-min Rain = 0
KTH1 141622Z 25012KT 36/17 A299 RMK A01 T03620170  RH  032%=      5-min Rain = 0
KTH1 141623Z 25016KT 36/18 A299 RMK A01 T03610178  RH  034%=      5-min Rain = 0
KTH1 141624Z 24011G16KT 36/17 A299 RMK A01 T03570173  RH  034%=      5-min Rain = 0
KTH1 141625Z 24010KT 36/17 A299 RMK A01 T03560168  RH  033%=      5-min Rain = 0
KTH1 141626Z 24011KT 36/17 A299 RMK A01 T03560168  RH  033%=      5-min Rain = 0
KTH1 141627Z 23009KT 36/17 A299 RMK A01 T03560168  RH  033%=      5-min Rain = 0
KTH1 141628Z 24007KT 36/17 A299 RMK A01 T03560169  RH  033%=      5-min Rain = 0
KTH1 141629Z 22013KT 36/17 A299 RMK A01 T03580166  RH  032%=      5-min Rain = 0
KTH1 141630Z 22010KT 36/17 A299 RMK A01 T03620165  RH  031%=      5-min Rain = 0
KTH1 141631Z 22008KT 36/16 A299 RMK A01 T03640164  RH  031%=      5-min Rain = 0
KTH1 141632Z 22009KT 36/16 A299 RMK A01 T03630163  RH  031%=      5-min Rain = 0
KTH1 141633Z 22008KT 37/17 A299 RMK A01 T03650165  RH  031%=      5-min Rain = 0
KTH1 141634Z 23009KT 37/17 A299 RMK A01 T03680167  RH  031%=      5-min Rain = 0
KTH1 141635Z 25010G15KT 37/17 A299 RMK A01 T03690171  RH  031%=      5-min Rain = 0
KTH1 141636Z 26012G17KT 37/18 A299 RMK A01 T03660180  RH  034%=      5-min Rain = 0
KTH1 141637Z 24010KT 36/17 A299 RMK A01 T03640173  RH  033%=      5-min Rain = 0
KTH1 141638Z 25011G18KT 36/17 A299 RMK A01 T03610169  RH  032%=      5-min Rain = 0
KTH1 141639Z 24013KT 36/17 A299 RMK A01 T03610173  RH  033%=      5-min Rain = 0
KTH1 141640Z 27009KT 36/19 A299 RMK A01 T03600186  RH  036%=      5-min Rain = 0
KTH1 141641Z 25010KT 36/18 A299 RMK A01 T03610180  RH  034%=      5-min Rain = 0
KTH1 141642Z 25014KT 36/18 A299 RMK A01 T03620175  RH  033%=      5-min Rain = 0
KTH1 141643Z 25017KT 36/18 A299 RMK A01 T03620178  RH  034%=      5-min Rain = 0
KTH1 141644Z 25016KT 36/18 A299 RMK A01 T03600182  RH  035%=      5-min Rain = 0
KTH1 141645Z 25012KT 36/18 A299 RMK A01 T03580178  RH  035%=      5-min Rain = 0
KTH1 141646Z 25013KT 36/18 A299 RMK A01 T03570175  RH  034%=      5-min Rain = 0
KTH1 141647Z 25011KT 36/17 A299 RMK A01 T03580171  RH  033%=      5-min Rain = 0
KTH1 141648Z 26011KT 36/18 A299 RMK A01 T03600182  RH  035%=      5-min Rain = 0
KTH1 141649Z 26012KT 36/18 A299 RMK A01 T03610181  RH  035%=      5-min Rain = 0
KTH1 141650Z 26013KT 36/19 A299 RMK A01 T03630187  RH  036%=      5-min Rain = 0
KTH1 141651Z 25012KT 37/19 A299 RMK A01 T03650187  RH  035%=      5-min Rain = 0
KTH1 141652Z 24011KT 37/17 A299 RMK A01 T03650173  RH  032%=      5-min Rain = 0
KTH1 141653Z 23008KT 37/17 A299 RMK A01 T03650167  RH  031%=      5-min Rain = 0
KTH1 141654Z 23005KT 37/17 A299 RMK A01 T03670167  RH  031%=      5-min Rain = 0
KTH1 141655Z 25007G13KT 37/17 A299 RMK A01 T03700169  RH  031%=      5-min Rain = 0
KTH1 141656Z 26012KT 37/18 A299 RMK A01 T03700183  RH  033%=      5-min Rain = 0
KTH1 141657Z 26016KT 37/19 A299 RMK A01 T03690191  RH  035%=      5-min Rain = 0
KTH1 141658Z 27012KT 37/19 A299 RMK A01 T03650193  RH  037%=      5-min Rain = 0
KTH1 141659Z 26010KT 37/19 A299 RMK A01 T03660186  RH  035%=      5-min Rain = 0
KTH1 141700Z 26008KT 37/19 A299 RMK A01 T03690193  RH  036%=      5-min Rain = 0
KTH1 141701Z 25010KT 37/19 A2991 RMK A01 T03710187  RH  034%=      5-min Rain = 0
KTH1 141702Z 24007KT 37/18 A299 RMK A01 T03680182  RH  034%=      5-min Rain = 0
KTH1 141703Z 27006KT 37/19 A299 RMK A01 T03670185  RH  034%=      5-min Rain = 0
KTH1 141704Z 26011KT 37/18 A299 RMK A01 T03690178  RH  033%=      5-min Rain = 0
KTH1 141705Z 26013KT 37/18 A299 RMK A01 T03700184  RH  034%=      5-min Rain = 0
KTH1 141706Z 25011KT 37/18 A299 RMK A01 T03700179  RH  033%=      5-min Rain = 0
KTH1 141707Z 25012KT 37/18 A2991 RMK A01 T03690180  RH  033%=      5-min Rain = 0
KTH1 141708Z 24008KT 37/17 A2991 RMK A01 T03680166  RH  030%=      5-min Rain = 0
KTH1 141709Z 25012KT 37/17 A2991 RMK A01 T03680169  RH  031%=      5-min Rain = 0
KTH1 141710Z 25012KT 37/18 A2991 RMK A01 T03690176  RH  032%=      5-min Rain = 0
KTH1 141711Z 25011KT 37/18 A2991 RMK A01 T03690176  RH  032%=      5-min Rain = 0
KTH1 141712Z 24008KT 37/17 A2991 RMK A01 T03680170  RH  031%=      5-min Rain = 0
KTH1 141713Z 24009KT 37/17 A2991 RMK A01 T03680169  RH  031%=      5-min Rain = 0
KTH1 141714Z 24008KT 37/17 A2991 RMK A01 T03700170  RH  031%=      5-min Rain = 0
KTH1 141715Z 24008KT 37/17 A2991 RMK A01 T03720166  RH  030%=      5-min Rain = 0
KTH1 141716Z 24008KT 37/16 A2991 RMK A01 T03740164  RH  029%=      5-min Rain = 0
KTH1 141717Z 25008KT 37/17 A2991 RMK A01 T03730167  RH  030%=      5-min Rain = 0
KTH1 141718Z 25007KT 37/17 A2991 RMK A01 T03730167  RH  030%=      5-min Rain = 0
KTH1 141719Z 25008KT 37/17 A2991 RMK A01 T03720167  RH  030%=      5-min Rain = 0
KTH1 141720Z 24008KT 37/17 A299 RMK A01 T03710166  RH  030%=      5-min Rain = 0
KTH1 141721Z 26012KT 37/18 A299 RMK A01 T03710176  RH  032%=      5-min Rain = 0
KTH1 141722Z 26011KT 37/19 A299 RMK A01 T03710187  RH  034%=      5-min Rain = 0
KTH1 141723Z 26010KT 37/18 A299 RMK A01 T03720182  RH  033%=      5-min Rain = 0
KTH1 141724Z 28007KT 37/18 A299 RMK A01 T03730178  RH  032%=      5-min Rain = 0
KTH1 141725Z 26004KT 38/18 A299 RMK A01 T03750181  RH  032%=      5-min Rain = 0
KTH1 141726Z 24005KT 38/18 A299 RMK A01 T03770177  RH  031%=      5-min Rain = 0
KTH1 141727Z 25006KT 38/18 A299 RMK A01 T03790178  RH  031%=      5-min Rain = 0
KTH1 141728Z 23007KT 38/17 A299 RMK A01 T03780167  RH  029%=      5-min Rain = 0
KTH1 141729Z 24010KT 38/17 A299 RMK A01 T03770171  RH  030%=      5-min Rain = 0
KTH1 141730Z 25011KT 38/17 A299 RMK A01 T03780172  RH  030%=      5-min Rain = 0
KTH1 141731Z 25009KT 38/17 A299 RMK A01 T03760173  RH  030%=      5-min Rain = 0
KTH1 141732Z 25009KT 38/18 A299 RMK A01 T03750177  RH  031%=      5-min Rain = 0
KTH1 141733Z 25007KT 38/17 A299 RMK A01 T03750167  RH  029%=      5-min Rain = 0
KTH1 141734Z 25005KT 38/17 A299 RMK A01 T03750170  RH  030%=      5-min Rain = 0
KTH1 141735Z 25004KT 38/16 A299 RMK A01 T03750163  RH  029%=      5-min Rain = 0
KTH1 141736Z 24005KT 38/16 A299 RMK A01 T03770164  RH  029%=      5-min Rain = 0
KTH1 141737Z 24006KT 38/17 A299 RMK A01 T03810165  RH  028%=      5-min Rain = 0
KTH1 141738Z 24008KT 38/17 A299 RMK A01 T03830169  RH  029%=      5-min Rain = 0
KTH1 141739Z 23007KT 38/17 A299 RMK A01 T03830166  RH  028%=      5-min Rain = 0
KTH1 141740Z 24005KT 38/16 A2989 RMK A01 T03820164  RH  028%=      5-min Rain = 0
KTH1 141741Z 23008KT 38/17 A2989 RMK A01 T03830167  RH  028%=      5-min Rain = 0
KTH1 141742Z 25005KT 38/16 A2989 RMK A01 T03830161  RH  027%=      5-min Rain = 0
KTH1 141743Z 24006KT 38/17 A2989 RMK A01 T03830165  RH  028%=      5-min Rain = 0
KTH1 141744Z 26008KT 39/17 A2989 RMK A01 T03850170  RH  028%=      5-min Rain = 0
KTH1 141745Z 26008KT 39/17 A2989 RMK A01 T03880173  RH  029%=      5-min Rain = 0
KTH1 141746Z 25009G14KT 39/16 A2989 RMK A01 T03890157  RH  026%=      5-min Rain = 0
KTH1 141747Z 24008G13KT 39/16 A2989 RMK A01 T03880160  RH  026%=      5-min Rain = 0
KTH1 141748Z 25009KT 39/16 A2989 RMK A01 T03870161  RH  027%=      5-min Rain = 0
KTH1 141749Z 26007KT 39/15 A2989 RMK A01 T03860154  RH  026%=      5-min Rain = 0
KTH1 141750Z 25010KT 39/16 A2989 RMK A01 T03860163  RH  027%=      5-min Rain = 0
KTH1 141751Z 25010KT 39/18 A2989 RMK A01 T03860178  RH  030%=      5-min Rain = 0
KTH1 141752Z 23009KT 38/17 A2989 RMK A01 T03820168  RH  028%=      5-min Rain = 0
KTH1 141753Z 24009KT 38/16 A2989 RMK A01 T03810161  RH  027%=      5-min Rain = 0
KTH1 141754Z 25007KT 38/16 A2989 RMK A01 T03820159  RH  027%=      5-min Rain = 0
KTH1 141755Z 24008KT 38/16 A2989 RMK A01 T03820164  RH  028%=      5-min Rain = 0
KTH1 141756Z 24007KT 38/16 A2989 RMK A01 T03830159  RH  027%=      5-min Rain = 0
KTH1 141757Z 22004KT 38/16 A2989 RMK A01 T03840158  RH  026%=      5-min Rain = 0
KTH1 141758Z 22004KT 38/16 A2989 RMK A01 T03840160  RH  027%=      5-min Rain = 0
KTH1 141759Z 19004KT 39/16 A2989 RMK A01 T03890156  RH  025%=      5-min Rain = 0
KTH1 141800Z 22003KT 39/16 A2989 RMK A01 T03930155  RH  025%=      5-min Rain = 0
KTH1 141801Z 25007KT 40/16 A2989 RMK A01 T03950159  RH  025%=      5-min Rain = 0
KTH1 141802Z 26012KT 39/17 A2989 RMK A01 T03940170  RH  027%=      5-min Rain = 0
KTH1 141803Z 25013KT 39/18 A2989 RMK A01 T03910179  RH  029%=      5-min Rain = 0
KTH1 141804Z 25013KT 39/18 A2989 RMK A01 T03890183  RH  030%=      5-min Rain = 0
KTH1 141805Z 25011KT 39/18 A2989 RMK A01 T03860175  RH  029%=      5-min Rain = 0
KTH1 141806Z 24009KT 39/17 A2989 RMK A01 T03850169  RH  028%=      5-min Rain = 0
KTH1 141807Z 25007KT 38/16 A2989 RMK A01 T03830158  RH  027%=      5-min Rain = 0
KTH1 141808Z 27003KT 38/16 A2989 RMK A01 T03830161  RH  027%=      5-min Rain = 0
KTH1 141809Z 27002KT 39/17 A2989 RMK A01 T03860166  RH  028%=      5-min Rain = 0
KTH1 141810Z 28002KT 39/17 A2989 RMK A01 T03890165  RH  027%=      5-min Rain = 0
KTH1 141811Z 27002KT 39/17 A2989 RMK A01 T03920165  RH  027%=      5-min Rain = 0
KTH1 141812Z 26002KT 39/16 A2989 RMK A01 T03940156  RH  025%=      5-min Rain = 0
KTH1 141813Z 25002KT 39/16 A2989 RMK A01 T03930155  RH  025%=      5-min Rain = 0
KTH1 141814Z 25003KT 39/16 A2989 RMK A01 T03920157  RH  025%=      5-min Rain = 0
KTH1 141815Z 22006KT 39/16 A2989 RMK A01 T03940159  RH  025%=      5-min Rain = 0
KTH1 141816Z 22008G13KT 40/15 A2989 RMK A01 T03980149  RH  023%=      5-min Rain = 0
KTH1 141817Z 20005KT 40/15 A2989 RMK A01 T04000146  RH  023%=      5-min Rain = 0
KTH1 141818Z 18005KT 40/15 A2988 RMK A01 T04000145  RH  022%=      5-min Rain = 0
KTH1 141819Z 24006G13KT 40/15 A2988 RMK A01 T04000150  RH  023%=      5-min Rain = 0
KTH1 141820Z 27010KT 40/17 A2988 RMK A01 T04020169  RH  026%=      5-min Rain = 0
KTH1 141821Z 27007KT 40/19 A2988 RMK A01 T04030187  RH  029%=      5-min Rain = 0
KTH1 141822Z 27008KT 40/18 A2988 RMK A01 T04030180  RH  028%=      5-min Rain = 0
KTH1 141823Z 27009KT 40/17 A2988 RMK A01 T04020171  RH  026%=      5-min Rain = 0
KTH1 141824Z 27007KT 40/17 A2988 RMK A01 T04020167  RH  025%=      5-min Rain = 0
KTH1 141825Z 30007KT 40/16 A2988 RMK A01 T04020157  RH  024%=      5-min Rain = 0
KTH1 141826Z 29006KT 40/16 A2988 RMK A01 T04010164  RH  025%=      5-min Rain = 0
KTH1 141827Z 24006KT 40/17 A2988 RMK A01 T04010166  RH  025%=      5-min Rain = 0
KTH1 141828Z 24009KT 40/16 A2988 RMK A01 T04010156  RH  024%=      5-min Rain = 0
KTH1 141829Z 26005KT 40/16 A2988 RMK A01 T03980163  RH  025%=      5-min Rain = 0
KTH1 141830Z 29003KT 40/16 A2988 RMK A01 T03970163  RH  025%=      5-min Rain = 0
KTH1 141831Z 27005KT 40/17 A2988 RMK A01 T04000166  RH  026%=      5-min Rain = 0
KTH1 141832Z 26006KT 41/17 A2988 RMK A01 T04060165  RH  025%=      5-min Rain = 0
KTH1 141833Z 24009KT 41/17 A2988 RMK A01 T04060170  RH  025%=      5-min Rain = 0
KTH1 141834Z 25010KT 40/16 A2988 RMK A01 T04020157  RH  024%=      5-min Rain = 0
KTH1 141835Z 25008KT 40/16 A2988 RMK A01 T04000156  RH  024%=      5-min Rain = 0
KTH1 141836Z 27007KT 40/15 A2988 RMK A01 T03980149  RH  023%=      5-min Rain = 0
KTH1 141837Z 26006G13KT 40/17 A2988 RMK A01 T04000166  RH  026%=      5-min Rain = 0
KTH1 141838Z 26011KT 40/16 A2988 RMK A01 T04030160  RH  024%=      5-min Rain = 0
KTH1 141839Z 26009KT 40/16 A2988 RMK A01 T04040157  RH  024%=      5-min Rain = 0
KTH1 141840Z 27005KT 41/17 A2988 RMK A01 T04050171  RH  026%=      5-min Rain = 0
KTH1 141841Z 24007KT 41/16 A2988 RMK A01 T04060163  RH  024%=      5-min Rain = 0
KTH1 141842Z 25006KT 40/16 A2988 RMK A01 T04010159  RH  024%=      5-min Rain = 0
KTH1 141843Z 26005KT 40/16 A2987 RMK A01 T03970163  RH  025%=      5-min Rain = 0
KTH1 141844Z 25010KT 40/16 A2987 RMK A01 T03990161  RH  025%=      5-min Rain = 0
KTH1 141845Z 25011KT 40/15 A2987 RMK A01 T03990148  RH  023%=      5-min Rain = 0
KTH1 141846Z 25010KT 40/16 A2987 RMK A01 T03980159  RH  025%=      5-min Rain = 0
KTH1 141847Z 27008KT 40/18 A2987 RMK A01 T03980180  RH  028%=      5-min Rain = 0
KTH1 141848Z 27006KT 40/16 A2987 RMK A01 T04000164  RH  025%=      5-min Rain = 0
KTH1 141849Z 26004KT 40/15 A2987 RMK A01 T04010154  RH  024%=      5-min Rain = 0
KTH1 141850Z 27004KT 40/17 A2987 RMK A01 T04040166  RH  025%=      5-min Rain = 0
KTH1 141851Z 28005KT 40/16 A2987 RMK A01 T04030159  RH  024%=      5-min Rain = 0
KTH1 141852Z 26007KT 40/16 A2987 RMK A01 T04040163  RH  024%=      5-min Rain = 0
KTH1 141853Z 25009KT 41/16 A2987 RMK A01 T04050164  RH  025%=      5-min Rain = 0
KTH1 141854Z 25009KT 40/16 A2987 RMK A01 T04000155  RH  024%=      5-min Rain = 0
KTH1 141855Z 27006KT 40/15 A2987 RMK A01 T03990152  RH  024%=      5-min Rain = 0
KTH1 141856Z 28004KT 40/15 A2987 RMK A01 T04020151  RH  023%=      5-min Rain = 0
KTH1 141857Z 27003KT 41/14 A2987 RMK A01 T04050140  RH  021%=      5-min Rain = 0
KTH1 141858Z 29002KT 41/15 A2987 RMK A01 T04070147  RH  022%=      5-min Rain = 0
KTH1 141859Z 26005KT 41/16 A2987 RMK A01 T04110162  RH  024%=      5-min Rain = 0
KTH1 141900Z 27004KT 41/16 A2987 RMK A01 T04130163  RH  024%=      5-min Rain = 0
KTH1 141901Z 26004KT 42/16 A2987 RMK A01 T04150158  RH  022%=      5-min Rain = 0
KTH1 141902Z 26008KT 42/16 A2987 RMK A01 T04160161  RH  023%=      5-min Rain = 0
KTH1 141903Z 28006G12KT 41/18 A2987 RMK A01 T04110181  RH  026%=      5-min Rain = 0
KTH1 141904Z 27007KT 41/18 A2987 RMK A01 T04110181  RH  027%=      5-min Rain = 0
KTH1 141905Z 26008KT 41/17 A2987 RMK A01 T04130171  RH  025%=      5-min Rain = 0
KTH1 141906Z 27005KT 41/16 A2987 RMK A01 T04140157  RH  022%=      5-min Rain = 0
KTH1 141907Z 29003KT 41/16 A2986 RMK A01 T04140155  RH  022%=      5-min Rain = 0
KTH1 141908Z 31003KT 42/16 A2986 RMK A01 T04160158  RH  022%=      5-min Rain = 0
KTH1 141909Z 30004KT 42/16 A2986 RMK A01 T04150159  RH  023%=      5-min Rain = 0
KTH1 141910Z 26003KT 42/16 A2986 RMK A01 T04150156  RH  022%=      5-min Rain = 0
KTH1 141911Z 24005KT 41/15 A2986 RMK A01 T04140154  RH  022%=      5-min Rain = 0
KTH1 141912Z 24006KT 41/14 A2986 RMK A01 T04120142  RH  021%=      5-min Rain = 0
KTH1 141913Z 24006KT 41/14 A2986 RMK A01 T04110144  RH  021%=      5-min Rain = 0
KTH1 141914Z 24008KT 41/15 A2986 RMK A01 T04110153  RH  022%=      5-min Rain = 0
KTH1 141915Z 24009KT 41/15 A2986 RMK A01 T04080147  RH  022%=      5-min Rain = 0
KTH1 141916Z 25011KT 41/16 A2986 RMK A01 T04070164  RH  024%=      5-min Rain = 0
KTH1 141917Z 25012KT 40/18 A2986 RMK A01 T04030183  RH  028%=      5-min Rain = 0
KTH1 141918Z 27010KT 40/18 A2986 RMK A01 T04010182  RH  028%=      5-min Rain = 0
KTH1 141919Z 25009G14KT 40/17 A2986 RMK A01 T04020172  RH  026%=      5-min Rain = 0
KTH1 141920Z 27008KT 41/15 A2986 RMK A01 T04060154  RH  023%=      5-min Rain = 0
KTH1 141921Z 28007KT 41/15 A2986 RMK A01 T04090153  RH  022%=      5-min Rain = 0
KTH1 141922Z 28006KT 41/16 A2986 RMK A01 T04100161  RH  023%=      5-min Rain = 0
KTH1 141923Z 29007KT 41/17 A2986 RMK A01 T04100169  RH  025%=      5-min Rain = 0
KTH1 141924Z 29008KT 41/15 A2986 RMK A01 T04100153  RH  022%=      5-min Rain = 0
KTH1 141925Z 28007KT 41/15 A2985 RMK A01 T04100154  RH  022%=      5-min Rain = 0
KTH1 141926Z 29006KT 41/15 A2985 RMK A01 T04110148  RH  022%=      5-min Rain = 0
KTH1 141927Z 25009KT 41/15 A2985 RMK A01 T04140152  RH  022%=      5-min Rain = 0
KTH1 141928Z 26007KT 41/15 A2985 RMK A01 T04130150  RH  022%=      5-min Rain = 0
KTH1 141929Z 22005KT 41/15 A2985 RMK A01 T04130145  RH  021%=      5-min Rain = 0
KTH1 141930Z 20007KT 42/12 A2985 RMK A01 T04150124  RH  018%=      5-min Rain = 0
KTH1 141931Z 24005KT 42/13 A2985 RMK A01 T04180126  RH  018%=      5-min Rain = 0
KTH1 141932Z 24006KT 42/13 A2985 RMK A01 T04200127  RH  018%=      5-min Rain = 0
KTH1 141933Z 25006KT 42/13 A2985 RMK A01 T04200134  RH  019%=      5-min Rain = 0
KTH1 141934Z 24010KT 42/14 A2985 RMK A01 T04200144  RH  020%=      5-min Rain = 0
KTH1 141935Z 24009KT 42/14 A2985 RMK A01 T04170143  RH  020%=      5-min Rain = 0
KTH1 141936Z 25009KT 41/16 A2985 RMK A01 T04140159  RH  023%=      5-min Rain = 0
KTH1 141937Z 26007KT 41/17 A2985 RMK A01 T04110171  RH  025%=      5-min Rain = 0
KTH1 141938Z 25008KT 41/14 A2985 RMK A01 T04090143  RH  021%=      5-min Rain = 0
KTH1 141939Z 23006KT 41/14 A2985 RMK A01 T04100140  RH  021%=      5-min Rain = 0
KTH1 141940Z 26006KT 41/15 A2985 RMK A01 T04110147  RH  021%=      5-min Rain = 0
KTH1 141941Z 27005KT 41/16 A2985 RMK A01 T04130164  RH  024%=      5-min Rain = 0
KTH1 141942Z 26005KT 42/17 A2985 RMK A01 T04150169  RH  024%=      5-min Rain = 0
KTH1 141943Z 27003KT 42/17 A2985 RMK A01 T04150169  RH  024%=      5-min Rain = 0
KTH1 141944Z 27004KT 42/17 A2985 RMK A01 T04190171  RH  024%=      5-min Rain = 0
KTH1 141945Z 27005KT 42/16 A2985 RMK A01 T04200161  RH  022%=      5-min Rain = 0
KTH1 141946Z 07001KT 42/13 A2984 RMK A01 T04180134  RH  019%=      5-min Rain = 0
KTH1 141947Z 02001KT 42/14 A2984 RMK A01 T04170135  RH  019%=      5-min Rain = 0
KTH1 141948Z 26002KT 42/14 A2984 RMK A01 T04190138  RH  019%=      5-min Rain = 0
KTH1 141949Z 29002KT 42/14 A2984 RMK A01 T04210139  RH  019%=      5-min Rain = 0
KTH1 141950Z 26004G10KT 42/14 A2984 RMK A01 T04220138  RH  019%=      5-min Rain = 0
KTH1 141951Z 25006KT 42/14 A2984 RMK A01 T04210136  RH  019%=      5-min Rain = 0
KTH1 141952Z 23005KT 42/14 A2984 RMK A01 T04180137  RH  019%=      5-min Rain = 0
KTH1 141953Z 25006KT 42/13 A2984 RMK A01 T04180132  RH  019%=      5-min Rain = 0
KTH1 141954Z 24006KT 42/14 A2984 RMK A01 T04190143  RH  020%=      5-min Rain = 0
KTH1 141955Z 26010KT 42/14 A2984 RMK A01 T04200143  RH  020%=      5-min Rain = 0
KTH1 141956Z 27009KT 42/16 A2984 RMK A01 T04200155  RH  022%=      5-min Rain = 0
KTH1 141957Z 26007KT 42/14 A2984 RMK A01 T04190139  RH  019%=      5-min Rain = 0
KTH1 141958Z 24009G14KT 42/15 A2984 RMK A01 T04190148  RH  021%=      5-min Rain = 0
KTH1 141959Z 25009KT 42/15 A2984 RMK A01 T04190149  RH  021%=      5-min Rain = 0
KTH1 142000Z 26008KT 42/14 A2984 RMK A01 T04190140  RH  020%=      5-min Rain = 0
KTH1 142001Z 26007KT 42/13 A2984 RMK A01 T04200129  RH  018%=      5-min Rain = 0
KTH1 142002Z 25007KT 42/14 A2984 RMK A01 T04200135  RH  019%=      5-min Rain = 0
KTH1 142003Z 25006KT 42/13 A2984 RMK A01 T04190134  RH  019%=      5-min Rain = 0
KTH1 142004Z 27007KT 42/15 A2984 RMK A01 T04200145  RH  020%=      5-min Rain = 0
KTH1 142005Z 26006KT 42/14 A2984 RMK A01 T04210144  RH  020%=      5-min Rain = 0
KTH1 142006Z 26006KT 42/14 A2984 RMK A01 T04220136  RH  019%=      5-min Rain = 0
KTH1 142007Z 25005KT 42/14 A2983 RMK A01 T04200136  RH  019%=      5-min Rain = 0
KTH1 142008Z 23002KT 42/14 A2983 RMK A01 T04190135  RH  019%=      5-min Rain = 0
KTH1 142009Z 21002KT 42/13 A2983 RMK A01 T04210130  RH  018%=      5-min Rain = 0
KTH1 142010Z 30000KT 42/13 A2983 RMK A01 T04220125  RH  017%=      5-min Rain = 0
KTH1 142011Z 25003KT 42/13 A2983 RMK A01 T04230130  RH  018%=      5-min Rain = 0
KTH1 142012Z 25005KT 42/13 A2983 RMK A01 T04230127  RH  018%=      5-min Rain = 0
KTH1 142013Z 27008KT 42/14 A2983 RMK A01 T04230142  RH  019%=      5-min Rain = 0
KTH1 142014Z 27011KT 42/17 A2983 RMK A01 T04230174  RH  024%=      5-min Rain = 0
KTH1 142015Z 28009KT 42/16 A2983 RMK A01 T04240156  RH  021%=      5-min Rain = 0
KTH1 142016Z 27010KT 43/15 A2983 RMK A01 T04280154  RH  020%=      5-min Rain = 0
KTH1 142017Z 28009KT 43/15 A2983 RMK A01 T04300150  RH  020%=      5-min Rain = 0
KTH1 142018Z 26010KT 43/15 A2983 RMK A01 T04320146  RH  019%=      5-min Rain = 0
KTH1 142019Z 26007KT 43/14 A2983 RMK A01 T04310135  RH  018%=      5-min Rain = 0
KTH1 142020Z 29006KT 43/16 A2983 RMK A01 T04290163  RH  022%=      5-min Rain = 0
KTH1 142021Z 29007KT 43/14 A2982 RMK A01 T04260135  RH  018%=      5-min Rain = 0
KTH1 142022Z 32005KT 43/13 A2982 RMK A01 T04250130  RH  018%=      5-min Rain = 0
KTH1 142023Z 32004KT 43/12 A2982 RMK A01 T04250122  RH  017%=      5-min Rain = 0
KTH1 142024Z 32004KT 43/11 A2982 RMK A01 T04250114  RH  016%=      5-min Rain = 0
KTH1 142025Z 33003KT 43/12 A2982 RMK A01 T04250117  RH  016%=      5-min Rain = 0
KTH1 142026Z 31002KT 43/12 A2982 RMK A01 T04270116  RH  016%=      5-min Rain = 0
KTH1 142027Z 28004KT 43/12 A2982 RMK A01 T04290122  RH  017%=      5-min Rain = 0
KTH1 142028Z 32002KT 43/13 A2982 RMK A01 T04280131  RH  018%=      5-min Rain = 0
KTH1 142029Z 25002KT 43/13 A2982 RMK A01 T04280132  RH  018%=      5-min Rain = 0
KTH1 142030Z 26004KT 43/13 A2982 RMK A01 T04260131  RH  018%=      5-min Rain = 0
KTH1 142031Z 28003KT 42/14 A2982 RMK A01 T04230140  RH  019%=      5-min Rain = 0
KTH1 142032Z 26005KT 42/14 A2982 RMK A01 T04240138  RH  019%=      5-min Rain = 0
KTH1 142033Z 25009G14KT 43/15 A2982 RMK A01 T04270146  RH  020%=      5-min Rain = 0
KTH1 142034Z 25008KT 43/15 A2982 RMK A01 T04290152  RH  020%=      5-min Rain = 0
KTH1 142035Z 25007KT 43/14 A2981 RMK A01 T04270140  RH  019%=      5-min Rain = 0
KTH1 142036Z 23006KT 43/14 A2981 RMK A01 T04250135  RH  018%=      5-min Rain = 0
KTH1 142037Z 24008KT 42/12 A2981 RMK A01 T04240119  RH  017%=      5-min Rain = 0
KTH1 142038Z 25011KT 42/13 A2981 RMK A01 T04240133  RH  018%=      5-min Rain = 0
KTH1 142039Z 26006KT 42/14 A2981 RMK A01 T04210137  RH  019%=      5-min Rain = 0
KTH1 142040Z 25003KT 42/13 A2981 RMK A01 T04210130  RH  018%=      5-min Rain = 0
KTH1 142041Z 26002KT 42/11 A2981 RMK A01 T04230113  RH  016%=      5-min Rain = 0
KTH1 142042Z 24005KT 43/12 A2981 RMK A01 T04250117  RH  016%=      5-min Rain = 0
KTH1 142043Z 26006KT 43/13 A2981 RMK A01 T04260125  RH  017%=      5-min Rain = 0
KTH1 142044Z 28007KT 43/14 A2981 RMK A01 T04260137  RH  019%=      5-min Rain = 0
KTH1 142045Z 30006KT 43/14 A2981 RMK A01 T04260135  RH  018%=      5-min Rain = 0
KTH1 142046Z 30009KT 43/15 A2981 RMK A01 T04270153  RH  020%=      5-min Rain = 0
KTH1 142047Z 31007KT 43/12 A2981 RMK A01 T04260123  RH  017%=      5-min Rain = 0
KTH1 142048Z 30006KT 43/11 A2981 RMK A01 T04260114  RH  016%=      5-min Rain = 0
KTH1 142049Z 31004KT 43/11 A2981 RMK A01 T04250113  RH  016%=      5-min Rain = 0
KTH1 142050Z 29003KT 43/11 A2981 RMK A01 T04260114  RH  016%=      5-min Rain = 0
KTH1 142051Z 26003KT 43/12 A2981 RMK A01 T04260118  RH  016%=      5-min Rain = 0
KTH1 142052Z 25004KT 43/11 A2981 RMK A01 T04270113  RH  016%=      5-min Rain = 0
KTH1 142053Z 23004KT 43/11 A2981 RMK A01 T04260114  RH  016%=      5-min Rain = 0
KTH1 142054Z 24005KT 43/11 A2981 RMK A01 T04260113  RH  016%=      5-min Rain = 0
KTH1 142055Z 23006KT 43/12 A2981 RMK A01 T04270117  RH  016%=      5-min Rain = 0
KTH1 142056Z 23005KT 43/12 A2981 RMK A01 T04290116  RH  016%=      5-min Rain = 0
KTH1 142057Z 23005KT 43/12 A2981 RMK A01 T04300115  RH  016%=      5-min Rain = 0
KTH1 142058Z 25005KT 43/12 A2981 RMK A01 T04300118  RH  016%=      5-min Rain = 0
KTH1 142059Z 25005KT 43/12 A298 RMK A01 T04310122  RH  016%=      5-min Rain = 0
KTH1 142100Z 25003KT 43/13 A298 RMK A01 T04320126  RH  017%=      5-min Rain = 0
KTH1 142101Z 27003KT 43/13 A298 RMK A01 T04300130  RH  017%=      5-min Rain = 0
KTH1 142102Z 29003KT 43/13 A298 RMK A01 T04300127  RH  017%=      5-min Rain = 0
KTH1 142103Z 25004KT 43/12 A298 RMK A01 T04290117  RH  016%=      5-min Rain = 0
KTH1 142104Z 25008KT 43/13 A298 RMK A01 T04300128  RH  017%=      5-min Rain = 0
KTH1 142105Z 25009KT 43/15 A298 RMK A01 T04280153  RH  020%=      5-min Rain = 0
KTH1 142106Z 25009KT 42/16 A298 RMK A01 T04230156  RH  021%=      5-min Rain = 0
KTH1 142107Z 27006KT 42/16 A298 RMK A01 T04210159  RH  022%=      5-min Rain = 0
KTH1 142108Z 27006KT 42/16 A298 RMK A01 T04240161  RH  022%=      5-min Rain = 0
KTH1 142109Z 27005KT 43/14 A298 RMK A01 T04260136  RH  018%=      5-min Rain = 0
KTH1 142110Z 27005KT 43/14 A298 RMK A01 T04290140  RH  019%=      5-min Rain = 0
KTH1 142111Z 27010KT 43/14 A298 RMK A01 T04320136  RH  018%=      5-min Rain = 0
KTH1 142112Z 27009KT 43/14 A298 RMK A01 T04320143  RH  019%=      5-min Rain = 0
KTH1 142113Z 26008KT 43/15 A298 RMK A01 T04330151  RH  020%=      5-min Rain = 0
KTH1 142114Z 26006KT 43/12 A298 RMK A01 T04340123  RH  016%=      5-min Rain = 0
KTH1 142115Z 26004KT 43/12 A298 RMK A01 T04330122  RH  016%=      5-min Rain = 0
KTH1 142116Z 25002KT 43/12 A298 RMK A01 T04330115  RH  015%=      5-min Rain = 0
KTH1 142117Z 27003KT 43/11 A298 RMK A01 T04340112  RH  015%=      5-min Rain = 0
KTH1 142118Z 29004KT 43/12 A298 RMK A01 T04340123  RH  016%=      5-min Rain = 0
KTH1 142119Z 26003KT 44/13 A298 RMK A01 T04350130  RH  017%=      5-min Rain = 0
KTH1 142120Z 27001KT 44/11 A298 RMK A01 T04360110  RH  015%=      5-min Rain = 0
KTH1 142121Z 26003KT 44/11 A298 RMK A01 T04360111  RH  015%=      5-min Rain = 0
KTH1 142122Z 28004KT 43/12 A298 RMK A01 T04340120  RH  016%=      5-min Rain = 0
KTH1 142123Z 29003KT 44/12 A298 RMK A01 T04350119  RH  016%=      5-min Rain = 0
KTH1 142124Z 31001KT 44/12 A298 RMK A01 T04360119  RH  016%=      5-min Rain = 0
KTH1 142125Z 31003KT 44/12 A2979 RMK A01 T04360122  RH  016%=      5-min Rain = 0
KTH1 142126Z 29003KT 44/13 A2979 RMK A01 T04370133  RH  017%=      5-min Rain = 0
KTH1 142127Z 26005KT 44/13 A2979 RMK A01 T04370131  RH  017%=      5-min Rain = 0
KTH1 142128Z 23006KT 43/13 A2979 RMK A01 T04340126  RH  017%=      5-min Rain = 0
KTH1 142129Z 21006KT 43/12 A2979 RMK A01 T04330120  RH  016%=      5-min Rain = 0
KTH1 142130Z 23005KT 43/12 A2979 RMK A01 T04340118  RH  016%=      5-min Rain = 0
KTH1 142131Z 26005KT 44/13 A2979 RMK A01 T04360129  RH  017%=      5-min Rain = 0
KTH1 142132Z 27004KT 44/13 A2979 RMK A01 T04360129  RH  017%=      5-min Rain = 0
KTH1 142133Z 25005KT 44/14 A2979 RMK A01 T04350135  RH  017%=      5-min Rain = 0
KTH1 142134Z 24004KT 43/13 A2979 RMK A01 T04340132  RH  017%=      5-min Rain = 0
KTH1 142135Z 24003KT 43/12 A2979 RMK A01 T04330124  RH  016%=      5-min Rain = 0
KTH1 142136Z 26004KT 44/14 A2979 RMK A01 T04360135  RH  017%=      5-min Rain = 0
KTH1 142137Z 24004KT 44/13 A2979 RMK A01 T04360127  RH  016%=      5-min Rain = 0
KTH1 142138Z 19004KT 44/12 A2979 RMK A01 T04360118  RH  016%=      5-min Rain = 0
KTH1 142139Z 22004G10KT 44/12 A2979 RMK A01 T04380117  RH  015%=      5-min Rain = 0
KTH1 142140Z 21006KT 44/11 A2979 RMK A01 T04400112  RH  015%=      5-min Rain = 0
KTH1 142141Z 20009KT 44/11 A2979 RMK A01 T04410113  RH  015%=      5-min Rain = 0
KTH1 142142Z 21006KT 44/11 A2979 RMK A01 T04420112  RH  014%=      5-min Rain = 0
KTH1 142143Z 19003KT 44/11 A2979 RMK A01 T04420112  RH  014%=      5-min Rain = 0
KTH1 142144Z 18003KT 44/11 A2979 RMK A01 T04420111  RH  014%=      5-min Rain = 0
KTH1 142145Z 17004KT 44/11 A2979 RMK A01 T04420110  RH  014%=      5-min Rain = 0
KTH1 142146Z 15005KT 44/11 A2979 RMK A01 T04400110  RH  014%=      5-min Rain = 0
KTH1 142147Z 14005KT 44/11 A2979 RMK A01 T04410111  RH  014%=      5-min Rain = 0
KTH1 142148Z 15003KT 44/11 A2979 RMK A01 T04420114  RH  015%=      5-min Rain = 0
KTH1 142149Z 16004KT 44/11 A2979 RMK A01 T04420112  RH  014%=      5-min Rain = 0
KTH1 142150Z 20005KT 44/11 A2979 RMK A01 T04420110  RH  014%=      5-min Rain = 0
KTH1 142151Z 21003KT 44/11 A2979 RMK A01 T04420111  RH  014%=      5-min Rain = 0
KTH1 142152Z 21002KT 44/11 A2979 RMK A01 T04420112  RH  014%=      5-min Rain = 0
KTH1 142153Z 21001KT 44/11 A2979 RMK A01 T04420108  RH  014%=      5-min Rain = 0
KTH1 142154Z 27002KT 44/12 A2979 RMK A01 T04420117  RH  015%=      5-min Rain = 0
KTH1 142155Z 28003KT 44/13 A2979 RMK A01 T04420130  RH  016%=      5-min Rain = 0
KTH1 142156Z 24005KT 44/13 A2978 RMK A01 T04410131  RH  016%=      5-min Rain = 0
KTH1 142157Z 23003KT 44/12 A2978 RMK A01 T04370115  RH  015%=      5-min Rain = 0
KTH1 142158Z 19003KT 44/11 A2978 RMK A01 T04350111  RH  015%=      5-min Rain = 0
KTH1 142159Z 20004KT 44/11 A2978 RMK A01 T04350109  RH  015%=      5-min Rain = 0
KTH1 142200Z 22004KT 44/12 A2978 RMK A01 T04370123  RH  016%=      5-min Rain = 0
KTH1 142201Z 23005KT 44/12 A2978 RMK A01 T04370116  RH  015%=      5-min Rain = 0
KTH1 142202Z 25007KT 44/13 A2978 RMK A01 T04370126  RH  016%=      5-min Rain = 0
KTH1 142203Z 27005KT 44/13 A2978 RMK A01 T04380128  RH  016%=      5-min Rain = 0
KTH1 142204Z 25006KT 44/12 A2978 RMK A01 T04370124  RH  016%=      5-min Rain = 0
KTH1 142205Z 22003KT 44/13 A2978 RMK A01 T04360127  RH  016%=      5-min Rain = 0
KTH1 142206Z 23004KT 44/12 A2978 RMK A01 T04380120  RH  016%=      5-min Rain = 0
KTH1 142207Z 26003KT 44/11 A2978 RMK A01 T04380113  RH  015%=      5-min Rain = 0
KTH1 142208Z 27002KT 44/11 A2978 RMK A01 T04380106  RH  014%=      5-min Rain = 0
KTH1 142209Z 21002KT 44/11 A2978 RMK A01 T04380106  RH  014%=      5-min Rain = 0
KTH1 142210Z 17004KT 44/11 A2978 RMK A01 T04380109  RH  014%=      5-min Rain = 0
KTH1 142211Z 17003KT 44/11 A2978 RMK A01 T04410109  RH  014%=      5-min Rain = 0
KTH1 142212Z 16003KT 44/11 A2978 RMK A01 T04430107  RH  014%=      5-min Rain = 0
KTH1 142213Z 18006KT 44/11 A2978 RMK A01 T04430106  RH  014%=      5-min Rain = 0
KTH1 142214Z 16004KT 44/11 A2978 RMK A01 T04410105  RH  014%=      5-min Rain = 0
KTH1 142215Z 17003KT 44/11 A2978 RMK A01 T04410105  RH  014%=      5-min Rain = 0
KTH1 142216Z 12002KT 44/11 A2978 RMK A01 T04410106  RH  014%=      5-min Rain = 0
KTH1 142217Z 14001KT 44/11 A2978 RMK A01 T04410107  RH  014%=      5-min Rain = 0
KTH1 142218Z 14002KT 44/11 A2977 RMK A01 T04420112  RH  014%=      5-min Rain = 0
KTH1 142219Z 12004KT 45/11 A2977 RMK A01 T04450112  RH  014%=      5-min Rain = 0
KTH1 142220Z 14004KT 45/11 A2977 RMK A01 T04470110  RH  014%=      5-min Rain = 0
KTH1 142221Z 15002KT 45/11 A2977 RMK A01 T04470106  RH  013%=      5-min Rain = 0
KTH1 142222Z 11004KT 45/11 A2977 RMK A01 T04460105  RH  014%=      5-min Rain = 0
KTH1 142223Z 10004KT 44/11 A2977 RMK A01 T04430105  RH  014%=      5-min Rain = 0
KTH1 142224Z 12002KT 44/10 A2977 RMK A01 T04410103  RH  014%=      5-min Rain = 0
KTH1 142225Z 11003KT 44/10 A2977 RMK A01 T04400104  RH  014%=      5-min Rain = 0
KTH1 142226Z 15002KT 44/11 A2977 RMK A01 T04390105  RH  014%=      5-min Rain = 0
KTH1 142227Z 14001KT 44/10 A2977 RMK A01 T04390103  RH  014%=      5-min Rain = 0
KTH1 142228Z 20001KT 44/11 A2977 RMK A01 T04380107  RH  014%=      5-min Rain = 0
KTH1 142229Z 21005KT 44/11 A2977 RMK A01 T04400107  RH  014%=      5-min Rain = 0
KTH1 142230Z 20003KT 44/11 A2977 RMK A01 T04400105  RH  014%=      5-min Rain = 0
KTH1 142231Z 22002KT 44/11 A2977 RMK A01 T04390108  RH  014%=      5-min Rain = 0
KTH1 142232Z 23001KT 44/11 A2977 RMK A01 T04400105  RH  014%=      5-min Rain = 0
KTH1 142233Z 19003KT 44/11 A2977 RMK A01 T04410108  RH  014%=      5-min Rain = 0
KTH1 142234Z 17004KT 44/11 A2977 RMK A01 T04420108  RH  014%=      5-min Rain = 0
KTH1 142235Z 20003KT 44/11 A2977 RMK A01 T04420105  RH  014%=      5-min Rain = 0
KTH1 142236Z 20002KT 44/10 A2977 RMK A01 T04420104  RH  014%=      5-min Rain = 0
KTH1 142237Z 17002KT 44/10 A2977 RMK A01 T04400103  RH  014%=      5-min Rain = 0
KTH1 142238Z 18003KT 44/10 A2977 RMK A01 T04390104  RH  014%=      5-min Rain = 0
KTH1 142239Z 13002KT 44/10 A2977 RMK A01 T04390103  RH  014%=      5-min Rain = 0
KTH1 142240Z 19002KT 44/11 A2977 RMK A01 T04390108  RH  014%=      5-min Rain = 0
KTH1 142241Z 13001KT 44/11 A2977 RMK A01 T04410107  RH  014%=      5-min Rain = 0
KTH1 142242Z 00001KT 44/10 A2977 RMK A01 T04420104  RH  014%=      5-min Rain = 0
KTH1 142243Z 01003KT 44/11 A2977 RMK A01 T04430108  RH  014%=      5-min Rain = 0
KTH1 142244Z 02003KT 44/10 A2977 RMK A01 T04430104  RH  014%=      5-min Rain = 0
KTH1 142245Z 35003KT 44/10 A2977 RMK A01 T04410104  RH  014%=      5-min Rain = 0
KTH1 142246Z 31003KT 44/11 A2977 RMK A01 T04400110  RH  014%=      5-min Rain = 0
KTH1 142247Z 31002KT 44/11 A2977 RMK A01 T04400110  RH  014%=      5-min Rain = 0
KTH1 142248Z 30002KT 44/12 A2977 RMK A01 T04410115  RH  015%=      5-min Rain = 0
KTH1 142249Z 32002KT 44/12 A2977 RMK A01 T04420119  RH  015%=      5-min Rain = 0
KTH1 142250Z 31002KT 44/11 A2977 RMK A01 T04420107  RH  014%=      5-min Rain = 0
KTH1 142251Z 32003KT 44/11 A2977 RMK A01 T04410110  RH  014%=      5-min Rain = 0
KTH1 142252Z 32005KT 44/12 A2977 RMK A01 T04410121  RH  015%=      5-min Rain = 0
KTH1 142253Z 29005KT 44/12 A2977 RMK A01 T04410116  RH  015%=      5-min Rain = 0
KTH1 142254Z 28003KT 44/12 A2977 RMK A01 T04390117  RH  015%=      5-min Rain = 0
KTH1 142255Z 30006KT 44/13 A2977 RMK A01 T04390132  RH  017%=      5-min Rain = 0
KTH1 142256Z 31007KT 44/14 A2977 RMK A01 T04380142  RH  018%=      5-min Rain = 0
KTH1 142257Z 31008KT 44/14 A2977 RMK A01 T04360143  RH  018%=      5-min Rain = 0
KTH1 142258Z 31009KT 44/13 A2977 RMK A01 T04350130  RH  017%=      5-min Rain = 0
KTH1 142259Z 30008KT 44/13 A2977 RMK A01 T04350126  RH  016%=      5-min Rain = 0
KTH1 142300Z 29009KT 43/15 A2977 RMK A01 T04330145  RH  019%=      5-min Rain = 0
KTH1 142301Z 28007KT 43/15 A2977 RMK A01 T04300147  RH  019%=      5-min Rain = 0
KTH1 142302Z 30006KT 43/14 A2977 RMK A01 T04300139  RH  018%=      5-min Rain = 0
KTH1 142303Z 31008KT 43/14 A2977 RMK A01 T04310137  RH  018%=      5-min Rain = 0
KTH1 142304Z 31006KT 43/13 A2977 RMK A01 T04310128  RH  017%=      5-min Rain = 0
KTH1 142305Z 31004KT 43/13 A2977 RMK A01 T04310127  RH  017%=      5-min Rain = 0
KTH1 142306Z 32003KT 43/12 A2977 RMK A01 T04310120  RH  016%=      5-min Rain = 0
KTH1 142307Z 32004KT 43/12 A2977 RMK A01 T04330124  RH  016%=      5-min Rain = 0
KTH1 142308Z 34005KT 44/12 A2977 RMK A01 T04350122  RH  016%=      5-min Rain = 0
KTH1 142309Z 33006KT 44/11 A2977 RMK A01 T04360113  RH  015%=      5-min Rain = 0
KTH1 142310Z 30007KT 44/13 A2978 RMK A01 T04350125  RH  016%=      5-min Rain = 0
KTH1 142311Z 31006KT 43/13 A2978 RMK A01 T04340130  RH  017%=      5-min Rain = 0
KTH1 142312Z 31005KT 43/12 A2978 RMK A01 T04320120  RH  016%=      5-min Rain = 0
KTH1 142313Z 32006KT 43/13 A2978 RMK A01 T04310130  RH  017%=      5-min Rain = 0
KTH1 142314Z 33003KT 43/13 A2978 RMK A01 T04290132  RH  018%=      5-min Rain = 0
KTH1 142315Z 33003KT 43/12 A2978 RMK A01 T04280118  RH  016%=      5-min Rain = 0
KTH1 142316Z 35003KT 43/11 A2978 RMK A01 T04270112  RH  016%=      5-min Rain = 0
KTH1 142317Z 01002KT 43/11 A2978 RMK A01 T04270108  RH  015%=      5-min Rain = 0
KTH1 142318Z 00002KT 43/11 A2978 RMK A01 T04270108  RH  015%=      5-min Rain = 0
KTH1 142319Z 01001KT 43/11 A2978 RMK A01 T04270107  RH  015%=      5-min Rain = 0
KTH1 142320Z 00000KT 43/11 A2978 RMK A01 T04260109  RH  015%=      5-min Rain = 0
KTH1 142321Z 03000KT 43/11 A2978 RMK A01 T04260114  RH  016%=      5-min Rain = 0
KTH1 142322Z 03001KT 43/12 A2978 RMK A01 T04260115  RH  016%=      5-min Rain = 0
KTH1 142323Z 05003KT 43/11 A2978 RMK A01 T04260108  RH  015%=      5-min Rain = 0
KTH1 142324Z 05003KT 43/10 A2978 RMK A01 T04250104  RH  015%=      5-min Rain = 0
KTH1 142325Z 04002KT 42/10 A2978 RMK A01 T04240104  RH  015%=      5-min Rain = 0
KTH1 142326Z 02002KT 42/10 A2978 RMK A01 T04230102  RH  015%=      5-min Rain = 0
KTH1 142327Z 02002KT 42/10 A2978 RMK A01 T04230103  RH  015%=      5-min Rain = 0
KTH1 142328Z 02002KT 42/10 A2978 RMK A01 T04220103  RH  015%=      5-min Rain = 0
KTH1 142329Z 02001KT 42/11 A2978 RMK A01 T04210105  RH  015%=      5-min Rain = 0
KTH1 142330Z 00002KT 42/11 A2978 RMK A01 T04210105  RH  015%=      5-min Rain = 0
KTH1 142331Z 00001KT 42/11 A2978 RMK A01 T04200109  RH  016%=      5-min Rain = 0
KTH1 142332Z 35001KT 42/12 A2978 RMK A01 T04190121  RH  017%=      5-min Rain = 0
KTH1 142333Z 35000KT 42/12 A2978 RMK A01 T04170120  RH  017%=      5-min Rain = 0
KTH1 142334Z 00000KT 42/12 A2978 RMK A01 T04150118  RH  017%=      5-min Rain = 0
KTH1 142335Z 00000KT 41/12 A2978 RMK A01 T04130120  RH  018%=      5-min Rain = 0
KTH1 142336Z 00000KT 41/12 A2978 RMK A01 T04130120  RH  018%=      5-min Rain = 0
KTH1 142337Z 00000KT 41/12 A2978 RMK A01 T04120116  RH  017%=      5-min Rain = 0
KTH1 142338Z 00000KT 41/11 A2978 RMK A01 T04110111  RH  017%=      5-min Rain = 0
KTH1 142339Z 00000KT 41/11 A2978 RMK A01 T04110109  RH  017%=      5-min Rain = 0
KTH1 142340Z 00000KT 41/11 A2978 RMK A01 T04110108  RH  017%=      5-min Rain = 0
KTH1 142341Z 00000KT 41/12 A2978 RMK A01 T04120116  RH  017%=      5-min Rain = 0
KTH1 142342Z 00000KT 41/12 A2977 RMK A01 T04110118  RH  018%=      5-min Rain = 0
KTH1 142343Z 00000KT 41/12 A2977 RMK A01 T04100118  RH  018%=      5-min Rain = 0
KTH1 142344Z 00000KT 41/11 A2977 RMK A01 T04100114  RH  017%=      5-min Rain = 0
KTH1 142345Z 00000KT 41/12 A2977 RMK A01 T04090117  RH  018%=      5-min Rain = 0
KTH1 142346Z 24001KT 41/13 A2977 RMK A01 T04090134  RH  020%=      5-min Rain = 0
KTH1 142347Z 24003KT 41/14 A2977 RMK A01 T04060141  RH  021%=      5-min Rain = 0
KTH1 142348Z 24002KT 40/14 A2977 RMK A01 T04040139  RH  021%=      5-min Rain = 0
KTH1 142349Z 24002KT 40/13 A2977 RMK A01 T04030127  RH  020%=      5-min Rain = 0
KTH1 142350Z 25001KT 40/14 A2977 RMK A01 T04030135  RH  021%=      5-min Rain = 0
KTH1 142351Z 25001KT 40/12 A2977 RMK A01 T04030116  RH  018%=      5-min Rain = 0
KTH1 142352Z 25001KT 41/11 A2977 RMK A01 T04050111  RH  017%=      5-min Rain = 0
KTH1 142353Z 25000KT 41/11 A2977 RMK A01 T04070109  RH  017%=      5-min Rain = 0
KTH1 142354Z 24001KT 41/11 A2977 RMK A01 T04080109  RH  017%=      5-min Rain = 0
KTH1 142355Z 23001KT 41/11 A2977 RMK A01 T04090108  RH  017%=      5-min Rain = 0
KTH1 142356Z 23001KT 41/11 A2977 RMK A01 T04100110  RH  017%=      5-min Rain = 0
KTH1 142357Z 22002KT 41/11 A2977 RMK A01 T04110112  RH  017%=      5-min Rain = 0
KTH1 142358Z 20001KT 41/12 A2977 RMK A01 T04110115  RH  017%=      5-min Rain = 0
KTH1 142359Z 19001KT 41/11 A2977 RMK A01 T04110110  RH  017%=      5-min Rain = 0
KTH1 150000Z 20001KT 41/11 A2977 RMK A01 T04110111  RH  017%=      5-min Rain = 0
KTH1 150001Z 20001KT 41/11 A2977 RMK A01 T04110109  RH  017%=      5-min Rain = 0
KTH1 150002Z 20000KT 41/11 A2977 RMK A01 T04110106  RH  016%=      5-min Rain = 0
KTH1 150003Z 00000KT 41/11 A2977 RMK A01 T04110108  RH  017%=      5-min Rain = 0
KTH1 150004Z 00000KT 41/11 A2977 RMK A01 T04110112  RH  017%=      5-min Rain = 0
KTH1 150005Z 00000KT 41/12 A2977 RMK A01 T04110115  RH  017%=      5-min Rain = 0
KTH1 150006Z 00000KT 41/12 A2977 RMK A01 T04110117  RH  018%=      5-min Rain = 0
KTH1 150007Z 00000KT 41/12 A2977 RMK A01 T04100119  RH  018%=      5-min Rain = 0
KTH1 150008Z 00000KT 41/12 A2978 RMK A01 T04090115  RH  018%=      5-min Rain = 0
KTH1 150009Z 00000KT 41/12 A2977 RMK A01 T04080116  RH  018%=      5-min Rain = 0
KTH1 150010Z 12000KT 41/12 A2977 RMK A01 T04070115  RH  018%=      5-min Rain = 0
KTH1 150011Z 12001KT 41/12 A2978 RMK A01 T04070118  RH  018%=      5-min Rain = 0
KTH1 150012Z 12001KT 41/13 A2978 RMK A01 T04060125  RH  019%=      5-min Rain = 0
KTH1 150013Z 12001KT 41/12 A2978 RMK A01 T04050122  RH  019%=      5-min Rain = 0
KTH1 150014Z 09003KT 40/12 A2978 RMK A01 T04040124  RH  019%=      5-min Rain = 0
KTH1 150015Z 10003KT 40/13 A2978 RMK A01 T04030129  RH  020%=      5-min Rain = 0
KTH1 150016Z 10003KT 40/12 A2978 RMK A01 T04020124  RH  019%=      5-min Rain = 0
KTH1 150017Z 11003KT 40/12 A2978 RMK A01 T04020121  RH  019%=      5-min Rain = 0
KTH1 150018Z 11003KT 40/12 A2978 RMK A01 T04020121  RH  019%=      5-min Rain = 0
KTH1 150019Z 11002KT 40/12 A2978 RMK A01 T04020124  RH  019%=      5-min Rain = 0
KTH1 150020Z 11002KT 40/13 A2978 RMK A01 T04020125  RH  019%=      5-min Rain = 0
KTH1 150021Z 11003KT 40/13 A2978 RMK A01 T04010125  RH  020%=      5-min Rain = 0
KTH1 150022Z 11003KT 40/12 A2978 RMK A01 T04010124  RH  019%=      5-min Rain = 0
KTH1 150023Z 10003KT 40/12 A2978 RMK A01 T04010122  RH  019%=      5-min Rain = 0
KTH1 150024Z 10002KT 40/12 A2978 RMK A01 T04010122  RH  019%=      5-min Rain = 0
KTH1 150025Z 10002KT 40/13 A2978 RMK A01 T04000125  RH  020%=      5-min Rain = 0
KTH1 150026Z 11003KT 40/13 A2978 RMK A01 T03990126  RH  020%=      5-min Rain = 0
KTH1 150027Z 10002KT 40/12 A2978 RMK A01 T03990124  RH  020%=      5-min Rain = 0
KTH1 150028Z 11002KT 40/13 A2978 RMK A01 T03980125  RH  020%=      5-min Rain = 0
KTH1 150029Z 10002KT 40/13 A2978 RMK A01 T03980128  RH  020%=      5-min Rain = 0
KTH1 150030Z 08002KT 40/13 A2978 RMK A01 T03960127  RH  020%=      5-min Rain = 0
KTH1 150031Z 09002KT 40/13 A2978 RMK A01 T03960129  RH  021%=      5-min Rain = 0
KTH1 150032Z 08002KT 40/13 A2978 RMK A01 T03950130  RH  021%=      5-min Rain = 0
KTH1 150033Z 08002KT 39/13 A2978 RMK A01 T03940128  RH  021%=      5-min Rain = 0
KTH1 150034Z 07002KT 39/13 A2978 RMK A01 T03930129  RH  021%=      5-min Rain = 0
KTH1 150035Z 08002KT 39/13 A2978 RMK A01 T03920130  RH  021%=      5-min Rain = 0
KTH1 150036Z 08002KT 39/13 A2978 RMK A01 T03920131  RH  021%=      5-min Rain = 0
KTH1 150037Z 09002KT 39/13 A2978 RMK A01 T03910131  RH  021%=      5-min Rain = 0
KTH1 150038Z 08003KT 39/13 A2978 RMK A01 T03900132  RH  022%=      5-min Rain = 0
KTH1 150039Z 08003KT 39/13 A2978 RMK A01 T03890133  RH  022%=      5-min Rain = 0
KTH1 150040Z 09003KT 39/13 A2978 RMK A01 T03870133  RH  022%=      5-min Rain = 0
KTH1 150041Z 09003KT 39/13 A2978 RMK A01 T03870131  RH  022%=      5-min Rain = 0
KTH1 150042Z 09003KT 39/13 A2978 RMK A01 T03860132  RH  022%=      5-min Rain = 0
KTH1 150043Z 09003KT 39/13 A2978 RMK A01 T03860131  RH  022%=      5-min Rain = 0
KTH1 150044Z 09003KT 39/13 A2978 RMK A01 T03850130  RH  022%=      5-min Rain = 0
KTH1 150045Z 09003KT 39/13 A2978 RMK A01 T03850130  RH  022%=      5-min Rain = 0
KTH1 150046Z 09003KT 38/13 A2978 RMK A01 T03840130  RH  022%=      5-min Rain = 0
KTH1 150047Z 09003KT 38/13 A2978 RMK A01 T03840130  RH  022%=      5-min Rain = 0
KTH1 150048Z 09003KT 38/13 A2978 RMK A01 T03840129  RH  022%=      5-min Rain = 0
KTH1 150049Z 10003KT 38/13 A2978 RMK A01 T03840129  RH  022%=      5-min Rain = 0
KTH1 150050Z 10002KT 38/13 A2978 RMK A01 T03830129  RH  022%=      5-min Rain = 0
KTH1 150051Z 10002KT 38/13 A2978 RMK A01 T03830130  RH  022%=      5-min Rain = 0
KTH1 150052Z 11002KT 38/13 A2978 RMK A01 T03820131  RH  022%=      5-min Rain = 0
KTH1 150053Z 10002KT 38/13 A2978 RMK A01 T03810132  RH  023%=      5-min Rain = 0
KTH1 150054Z 10003KT 38/13 A2978 RMK A01 T03800133  RH  023%=      5-min Rain = 0
KTH1 150055Z 11003KT 38/13 A2978 RMK A01 T03790133  RH  023%=      5-min Rain = 0
KTH1 150056Z 11003KT 38/13 A2979 RMK A01 T03780131  RH  023%=      5-min Rain = 0
KTH1 150057Z 11002KT 38/13 A2979 RMK A01 T03770132  RH  023%=      5-min Rain = 0
KTH1 150058Z 11002KT 38/13 A2979 RMK A01 T03760132  RH  023%=      5-min Rain = 0
KTH1 150059Z 12002KT 38/13 A2979 RMK A01 T03750134  RH  024%=      5-min Rain = 0
KTH1 150100Z 11003KT 37/13 A2979 RMK A01 T03740132  RH  024%=      5-min Rain = 0
KTH1 150101Z 11003KT 37/13 A2979 RMK A01 T03730131  RH  024%=      5-min Rain = 0
KTH1 150102Z 11004KT 37/13 A2979 RMK A01 T03730131  RH  024%=      5-min Rain = 0
KTH1 150103Z 11002KT 37/13 A2979 RMK A01 T03730131  RH  024%=      5-min Rain = 0
KTH1 150104Z 11004KT 37/13 A2979 RMK A01 T03730130  RH  024%=      5-min Rain = 0
KTH1 150105Z 11003KT 37/13 A2979 RMK A01 T03720130  RH  024%=      5-min Rain = 0
KTH1 150106Z 12003KT 37/13 A2979 RMK A01 T03720129  RH  024%=      5-min Rain = 0
KTH1 150107Z 12003KT 37/13 A2979 RMK A01 T03710129  RH  024%=      5-min Rain = 0
KTH1 150108Z 13003KT 37/13 A2979 RMK A01 T03710130  RH  024%=      5-min Rain = 0
KTH1 150109Z 13003KT 37/13 A2979 RMK A01 T03710129  RH  024%=      5-min Rain = 0
KTH1 150110Z 13003KT 37/14 A2979 RMK A01 T03710135  RH  025%=      5-min Rain = 0
KTH1 150111Z 14003KT 37/14 A2979 RMK A01 T03700137  RH  025%=      5-min Rain = 0
KTH1 150112Z 14003KT 37/15 A2979 RMK A01 T03680150  RH  027%=      5-min Rain = 0
KTH1 150113Z 14003KT 37/16 A2979 RMK A01 T03670160  RH  029%=      5-min Rain = 0
KTH1 150114Z 13003KT 37/17 A2979 RMK A01 T03650172  RH  032%=      5-min Rain = 0
KTH1 150115Z 14003KT 36/18 A2979 RMK A01 T03630180  RH  034%=      5-min Rain = 0
KTH1 150116Z 14003KT 36/18 A2979 RMK A01 T03610175  RH  033%=      5-min Rain = 0
KTH1 150117Z 13002KT 36/17 A2979 RMK A01 T03600169  RH  032%=      5-min Rain = 0
KTH1 150118Z 13002KT 36/17 A2979 RMK A01 T03590171  RH  033%=      5-min Rain = 0
KTH1 150119Z 13003KT 36/16 A2979 RMK A01 T03580159  RH  031%=      5-min Rain = 0
KTH1 150120Z 13002KT 36/16 A2979 RMK A01 T03570163  RH  032%=      5-min Rain = 0
KTH1 150121Z 13002KT 36/15 A2979 RMK A01 T03560148  RH  029%=      5-min Rain = 0
KTH1 150122Z 14002KT 36/14 A2979 RMK A01 T03560138  RH  027%=      5-min Rain = 0
KTH1 150123Z 14002KT 36/13 A2979 RMK A01 T03570134  RH  026%=      5-min Rain = 0
KTH1 150124Z 15002KT 36/14 A298 RMK A01 T03570136  RH  027%=      5-min Rain = 0
KTH1 150125Z 16002KT 36/14 A298 RMK A01 T03580135  RH  026%=      5-min Rain = 0
KTH1 150126Z 16001KT 36/14 A298 RMK A01 T03570136  RH  027%=      5-min Rain = 0
KTH1 150127Z 16002KT 36/14 A298 RMK A01 T03570137  RH  027%=      5-min Rain = 0
KTH1 150128Z 16001KT 36/14 A298 RMK A01 T03580138  RH  027%=      5-min Rain = 0
KTH1 150129Z 16001KT 36/14 A298 RMK A01 T03570137  RH  027%=      5-min Rain = 0
KTH1 150130Z 16001KT 36/14 A298 RMK A01 T03570140  RH  027%=      5-min Rain = 0
KTH1 150131Z 16002KT 36/14 A298 RMK A01 T03560143  RH  028%=      5-min Rain = 0
KTH1 150132Z 16001KT 36/14 A298 RMK A01 T03550143  RH  028%=      5-min Rain = 0
KTH1 150133Z 15001KT 36/14 A298 RMK A01 T03550140  RH  028%=      5-min Rain = 0
KTH1 150134Z 17001KT 35/14 A298 RMK A01 T03540139  RH  028%=      5-min Rain = 0
KTH1 150135Z 16001KT 35/15 A298 RMK A01 T03530145  RH  029%=      5-min Rain = 0
KTH1 150136Z 17001KT 35/18 A298 RMK A01 T03520179  RH  036%=      5-min Rain = 0
KTH1 150137Z 17002KT 35/19 A298 RMK A01 T03500186  RH  038%=      5-min Rain = 0
KTH1 150138Z 17001KT 35/21 A298 RMK A01 T03480206  RH  044%=      5-min Rain = 0
KTH1 150139Z 17002KT 35/21 A298 RMK A01 T03450206  RH  044%=      5-min Rain = 0
KTH1 150140Z 18002KT 34/22 A298 RMK A01 T03430218  RH  048%=      5-min Rain = 0
KTH1 150141Z 19001KT 34/23 A298 RMK A01 T03400229  RH  052%=      5-min Rain = 0
KTH1 150142Z 20001KT 34/23 A298 RMK A01 T03380230  RH  053%=      5-min Rain = 0
KTH1 150143Z 23001KT 34/22 A298 RMK A01 T03350220  RH  051%=      5-min Rain = 0
KTH1 150144Z 26002KT 33/22 A298 RMK A01 T03330218  RH  051%=      5-min Rain = 0
KTH1 150145Z 29003KT 33/22 A2981 RMK A01 T03330217  RH  051%=      5-min Rain = 0
KTH1 150146Z 29004KT 33/22 A2981 RMK A01 T03310220  RH  052%=      5-min Rain = 0
KTH1 150147Z 29008G18KT 33/22 A2982 RMK A01 T03300217  RH  052%=      5-min Rain = 0
KTH1 150148Z 30016KT 33/18 A2982 RMK A01 T03300175  RH  040%=      5-min Rain = 0
KTH1 150149Z 29013KT 34/16 A2982 RMK A01 T03410157  RH  033%=      5-min Rain = 0
KTH1 150150Z 30016KT 35/16 A2982 RMK A01 T03480164  RH  033%=      5-min Rain = 0
KTH1 150151Z 31013G18KT 35/16 A2982 RMK A01 T03510160  RH  032%=      5-min Rain = 0
KTH1 150152Z 31015KT 35/16 A2982 RMK A01 T03530161  RH  032%=      5-min Rain = 0
KTH1 150153Z 31019G24KT 35/16 A2982 RMK A01 T03540155  RH  031%=      5-min Rain = 0
KTH1 150154Z 29020G26KT 36/16 A2982 RMK A01 T03550157  RH  031%=      5-min Rain = 0
KTH1 150155Z 30021G26KT 36/16 A2982 RMK A01 T03560157  RH  031%=      5-min Rain = 0
KTH1 150156Z 30022G28KT 36/15 A2982 RMK A01 T03570154  RH  030%=      5-min Rain = 0
KTH1 150157Z 30017KT 36/16 A2982 RMK A01 T03580162  RH  031%=      5-min Rain = 0
KTH1 150158Z 30023KT 36/16 A2982 RMK A01 T03570161  RH  031%=      5-min Rain = 0
KTH1 150159Z 31020KT 36/16 A2982 RMK A01 T03570159  RH  031%=      5-min Rain = 0
KTH1 150200Z 30019KT 36/16 A2982 RMK A01 T03580158  RH  030%=      5-min Rain = 0
KTH1 150201Z 31019KT 36/16 A2982 RMK A01 T03580155  RH  030%=      5-min Rain = 0
KTH1 150202Z 31016KT 36/15 A2982 RMK A01 T03580148  RH  029%=      5-min Rain = 0
KTH1 150203Z 31013G19KT 36/15 A2982 RMK A01 T03590151  RH  029%=      5-min Rain = 0
KTH1 150204Z 31016G21KT 36/15 A2982 RMK A01 T03590153  RH  029%=      5-min Rain = 0
KTH1 150205Z 30013KT 36/16 A2982 RMK A01 T03590155  RH  030%=      5-min Rain = 0
KTH1 150206Z 31016G21KT 36/16 A2982 RMK A01 T03580155  RH  030%=      5-min Rain = 0
KTH1 150207Z 31020KT 36/16 A2982 RMK A01 T03580157  RH  030%=      5-min Rain = 0
KTH1 150208Z 31018KT 36/16 A2982 RMK A01 T03570156  RH  030%=      5-min Rain = 0
KTH1 150209Z 29017KT 36/15 A2983 RMK A01 T03570153  RH  030%=      5-min Rain = 0
KTH1 150210Z 30015KT 36/15 A2983 RMK A01 T03570153  RH  030%=      5-min Rain = 0
KTH1 150211Z 30015KT 36/16 A2983 RMK A01 T03570162  RH  031%=      5-min Rain = 0
KTH1 150212Z 30015KT 36/16 A2983 RMK A01 T03550155  RH  030%=      5-min Rain = 0
KTH1 150213Z 30014KT 36/15 A2983 RMK A01 T03550154  RH  030%=      5-min Rain = 0
KTH1 150214Z 30011KT 35/15 A2983 RMK A01 T03540154  RH  030%=      5-min Rain = 0
KTH1 150215Z 30012KT 35/16 A2983 RMK A01 T03540155  RH  030%=      5-min Rain = 0
KTH1 150216Z 30012KT 35/15 A2983 RMK A01 T03530153  RH  030%=      5-min Rain = 0
KTH1 150217Z 30013KT 35/15 A2983 RMK A01 T03530154  RH  031%=      5-min Rain = 0
KTH1 150218Z 30012KT 35/15 A2983 RMK A01 T03530153  RH  030%=      5-min Rain = 0
KTH1 150219Z 29012KT 35/16 A2983 RMK A01 T03520160  RH  032%=      5-min Rain = 0
KTH1 150220Z 29011KT 35/16 A2983 RMK A01 T03510155  RH  031%=      5-min Rain = 0
KTH1 150221Z 29011KT 35/16 A2984 RMK A01 T03510158  RH  032%=      5-min Rain = 0
KTH1 150222Z 29010KT 35/16 A2984 RMK A01 T03500155  RH  031%=      5-min Rain = 0
KTH1 150223Z 28011KT 35/16 A2984 RMK A01 T03500159  RH  032%=      5-min Rain = 0
KTH1 150224Z 29011KT 35/16 A2984 RMK A01 T03490158  RH  032%=      5-min Rain = 0
KTH1 150225Z 29010KT 35/15 A2984 RMK A01 T03490154  RH  031%=      5-min Rain = 0
KTH1 150226Z 29010KT 35/16 A2984 RMK A01 T03490162  RH  033%=      5-min Rain = 0
KTH1 150227Z 29009KT 35/16 A2984 RMK A01 T03480161  RH  033%=      5-min Rain = 0
KTH1 150228Z 28009KT 35/16 A2984 RMK A01 T03470164  RH  034%=      5-min Rain = 0
KTH1 150229Z 29010KT 35/16 A2984 RMK A01 T03460164  RH  034%=      5-min Rain = 0
KTH1 150230Z 29010KT 35/16 A2984 RMK A01 T03450160  RH  033%=      5-min Rain = 0
KTH1 150231Z 28011KT 35/16 A2984 RMK A01 T03450159  RH  033%=      5-min Rain = 0
KTH1 150232Z 28010KT 35/16 A2984 RMK A01 T03450156  RH  032%=      5-min Rain = 0
KTH1 150233Z 28011KT 35/16 A2984 RMK A01 T03450162  RH  034%=      5-min Rain = 0
KTH1 150234Z 28011KT 34/16 A2984 RMK A01 T03440159  RH  033%=      5-min Rain = 0
KTH1 150235Z 28010KT 34/16 A2984 RMK A01 T03440158  RH  033%=      5-min Rain = 0
KTH1 150236Z 28011KT 34/16 A2984 RMK A01 T03440163  RH  034%=      5-min Rain = 0
KTH1 150237Z 29011KT 34/15 A2984 RMK A01 T03430153  RH  032%=      5-min Rain = 0
KTH1 150238Z 28012KT 34/15 A2984 RMK A01 T03430151  RH  032%=      5-min Rain = 0
KTH1 150239Z 29013KT 34/15 A2985 RMK A01 T03440149  RH  031%=      5-min Rain = 0
KTH1 150240Z 29011KT 35/16 A2985 RMK A01 T03450156  RH  032%=      5-min Rain = 0
KTH1 150241Z 29011KT 35/15 A2985 RMK A01 T03450154  RH  032%=      5-min Rain = 0
KTH1 150242Z 30011KT 35/15 A2985 RMK A01 T03450145  RH  030%=      5-min Rain = 0
KTH1 150243Z 30011KT 35/15 A2985 RMK A01 T03450151  RH  031%=      5-min Rain = 0
KTH1 150244Z 30011KT 35/15 A2985 RMK A01 T03450149  RH  031%=      5-min Rain = 0
KTH1 150245Z 29011KT 35/14 A2985 RMK A01 T03450144  RH  030%=      5-min Rain = 0
KTH1 150246Z 28010KT 35/15 A2985 RMK A01 T03460149  RH  031%=      5-min Rain = 0
KTH1 150247Z 29011KT 35/15 A2985 RMK A01 T03460151  RH  031%=      5-min Rain = 0
KTH1 150248Z 29013KT 35/15 A2985 RMK A01 T03450149  RH  031%=      5-min Rain = 0
KTH1 150249Z 29014KT 35/15 A2985 RMK A01 T03460145  RH  030%=      5-min Rain = 0
KTH1 150250Z 29013KT 35/15 A2985 RMK A01 T03480148  RH  030%=      5-min Rain = 0
KTH1 150251Z 28012KT 35/15 A2985 RMK A01 T03480151  RH  031%=      5-min Rain = 0
KTH1 150252Z 28012KT 35/15 A2985 RMK A01 T03480152  RH  031%=      5-min Rain = 0
KTH1 150253Z 28011KT 35/15 A2985 RMK A01 T03480148  RH  030%=      5-min Rain = 0
KTH1 150254Z 28012KT 35/15 A2985 RMK A01 T03480147  RH  030%=      5-min Rain = 0
KTH1 150255Z 28013G18KT 35/15 A2985 RMK A01 T03480151  RH  031%=      5-min Rain = 0
KTH1 150256Z 29014KT 35/15 A2984 RMK A01 T03480146  RH  030%=      5-min Rain = 0
KTH1 150257Z 28013KT 35/14 A2984 RMK A01 T03490137  RH  028%=      5-min Rain = 0
KTH1 150258Z 29013KT 35/14 A2984 RMK A01 T03500143  RH  029%=      5-min Rain = 0
KTH1 150259Z 29012KT 35/14 A2984 RMK A01 T03500142  RH  029%=      5-min Rain = 0
KTH1 150300Z 28013KT 35/14 A2984 RMK A01 T03500143  RH  029%=      5-min Rain = 0
KTH1 150301Z 28013KT 35/15 A2984 RMK A01 T03500147  RH  030%=      5-min Rain = 0
KTH1 150302Z 29014KT 35/15 A2984 RMK A01 T03500147  RH  030%=      5-min Rain = 0
KTH1 150303Z 29014KT 35/14 A2984 RMK A01 T03490140  RH  029%=      5-min Rain = 0
KTH1 150304Z 29013KT 35/15 A2984 RMK A01 T03500149  RH  030%=      5-min Rain = 0
KTH1 150305Z 30012KT 35/15 A2984 RMK A01 T03500147  RH  030%=      5-min Rain = 0
KTH1 150306Z 30011KT 35/14 A2985 RMK A01 T03500142  RH  029%=      5-min Rain = 0
KTH1 150307Z 30011KT 35/14 A2984 RMK A01 T03510136  RH  028%=      5-min Rain = 0
KTH1 150308Z 30011KT 35/14 A2984 RMK A01 T03510137  RH  028%=      5-min Rain = 0
KTH1 150309Z 30009KT 35/14 A2984 RMK A01 T03510141  RH  028%=      5-min Rain = 0
KTH1 150310Z 30008KT 35/14 A2985 RMK A01 T03520143  RH  029%=      5-min Rain = 0
KTH1 150311Z 29008KT 35/14 A2985 RMK A01 T03510141  RH  028%=      5-min Rain = 0
KTH1 150312Z 29009KT 35/14 A2985 RMK A01 T03510142  RH  029%=      5-min Rain = 0
KTH1 150313Z 29009G14KT 35/14 A2985 RMK A01 T03500140  RH  028%=      5-min Rain = 0
KTH1 150314Z 29010KT 35/14 A2984 RMK A01 T03500139  RH  028%=      5-min Rain = 0
KTH1 150315Z 30010KT 35/14 A2984 RMK A01 T03490142  RH  029%=      5-min Rain = 0
KTH1 150316Z 30011KT 35/14 A2984 RMK A01 T03490139  RH  028%=      5-min Rain = 0
KTH1 150317Z 30012KT 35/15 A2984 RMK A01 T03480146  RH  030%=      5-min Rain = 0
KTH1 150318Z 29012KT 35/14 A2984 RMK A01 T03480144  RH  029%=      5-min Rain = 0
KTH1 150319Z 29014KT 35/14 A2984 RMK A01 T03470142  RH  029%=      5-min Rain = 0
KTH1 150320Z 29015KT 35/14 A2984 RMK A01 T03480140  RH  029%=      5-min Rain = 0
KTH1 150321Z 30013KT 35/14 A2984 RMK A01 T03500137  RH  028%=      5-min Rain = 0
KTH1 150322Z 29011KT 35/14 A2984 RMK A01 T03520144  RH  029%=      5-min Rain = 0
KTH1 150323Z 27009KT 35/15 A2984 RMK A01 T03520145  RH  029%=      5-min Rain = 0
KTH1 150324Z 28009KT 35/14 A2984 RMK A01 T03520140  RH  028%=      5-min Rain = 0
KTH1 150325Z 27008KT 35/15 A2984 RMK A01 T03510151  RH  030%=      5-min Rain = 0
KTH1 150326Z 27007KT 35/15 A2984 RMK A01 T03500151  RH  031%=      5-min Rain = 0
KTH1 150327Z 27008KT 35/15 A2984 RMK A01 T03490146  RH  030%=      5-min Rain = 0
KTH1 150328Z 27008KT 35/15 A2984 RMK A01 T03480145  RH  030%=      5-min Rain = 0
KTH1 150329Z 28008KT 35/14 A2984 RMK A01 T03470142  RH  029%=      5-min Rain = 0
KTH1 150330Z 29008KT 35/14 A2984 RMK A01 T03470140  RH  029%=      5-min Rain = 0
KTH1 150331Z 29008KT 35/14 A2984 RMK A01 T03470138  RH  029%=      5-min Rain = 0
KTH1 150332Z 29007KT 35/14 A2984 RMK A01 T03470142  RH  029%=      5-min Rain = 0
KTH1 150333Z 28007KT 35/14 A2984 RMK A01 T03460141  RH  029%=      5-min Rain = 0
KTH1 150334Z 27006KT 35/14 A2984 RMK A01 T03450143  RH  030%=      5-min Rain = 0
KTH1 150335Z 28007KT 35/15 A2984 RMK A01 T03450145  RH  030%=      5-min Rain = 0
KTH1 150336Z 28007KT 34/15 A2984 RMK A01 T03440147  RH  031%=      5-min Rain = 0
KTH1 150337Z 28010KT 34/15 A2984 RMK A01 T03430153  RH  032%=      5-min Rain = 0
KTH1 150338Z 28010KT 34/14 A2984 RMK A01 T03420143  RH  030%=      5-min Rain = 0
KTH1 150339Z 28010KT 34/15 A2984 RMK A01 T03420147  RH  031%=      5-min Rain = 0
KTH1 150340Z 28010KT 34/15 A2984 RMK A01 T03430148  RH  031%=      5-min Rain = 0
KTH1 150341Z 28010KT 34/15 A2984 RMK A01 T03420147  RH  031%=      5-min Rain = 0
KTH1 150342Z 28011KT 34/14 A2984 RMK A01 T03430142  RH  030%=      5-min Rain = 0
KTH1 150343Z 28010KT 34/15 A2984 RMK A01 T03430145  RH  030%=      5-min Rain = 0
KTH1 150344Z 28012KT 34/15 A2984 RMK A01 T03430147  RH  031%=      5-min Rain = 0
KTH1 150345Z 28012KT 34/14 A2984 RMK A01 T03430143  RH  030%=      5-min Rain = 0
KTH1 150346Z 28012KT 34/14 A2985 RMK A01 T03440141  RH  030%=      5-min Rain = 0
KTH1 150347Z 29012KT 34/14 A2985 RMK A01 T03440142  RH  030%=      5-min Rain = 0
KTH1 150348Z 29012KT 34/14 A2985 RMK A01 T03440140  RH  029%=      5-min Rain = 0
KTH1 150349Z 28012KT 34/14 A2985 RMK A01 T03440143  RH  030%=      5-min Rain = 0
KTH1 150350Z 29012KT 34/14 A2985 RMK A01 T03440143  RH  030%=      5-min Rain = 0
KTH1 150351Z 29012KT 34/14 A2985 RMK A01 T03440139  RH  029%=      5-min Rain = 0
KTH1 150352Z 29012KT 35/14 A2985 RMK A01 T03450142  RH  030%=      5-min Rain = 0
KTH1 150353Z 29011KT 35/14 A2985 RMK A01 T03450142  RH  030%=      5-min Rain = 0
KTH1 150354Z 29010KT 35/15 A2985 RMK A01 T03450148  RH  031%=      5-min Rain = 0
KTH1 150355Z 29010KT 35/15 A2985 RMK A01 T03450146  RH  030%=      5-min Rain = 0
KTH1 150356Z 28009KT 34/15 A2985 RMK A01 T03440146  RH  031%=      5-min Rain = 0
KTH1 150357Z 28008KT 34/15 A2985 RMK A01 T03430146  RH  031%=      5-min Rain = 0
KTH1 150358Z 29009KT 34/14 A2985 RMK A01 T03420140  RH  030%=      5-min Rain = 0
KTH1 150359Z 29009KT 34/15 A2985 RMK A01 T03420147  RH  031%=      5-min Rain = 0
KTH1 150400Z 30009KT 34/15 A2985 RMK A01 T03420147  RH  031%=      5-min Rain = 0
KTH1 150401Z 30011KT 34/15 A2985 RMK A01 T03420148  RH  031%=      5-min Rain = 0
KTH1 150402Z 31009KT 34/14 A2985 RMK A01 T03420141  RH  030%=      5-min Rain = 0
KTH1 150403Z 29011KT 34/15 A2985 RMK A01 T03430150  RH  031%=      5-min Rain = 0
KTH1 150404Z 29010KT 34/15 A2985 RMK A01 T03430150  RH  031%=      5-min Rain = 0
KTH1 150405Z 29011KT 34/15 A2985 RMK A01 T03430149  RH  031%=      5-min Rain = 0
KTH1 150406Z 29011KT 34/15 A2985 RMK A01 T03430150  RH  032%=      5-min Rain = 0
KTH1 150407Z 29012KT 34/15 A2985 RMK A01 T03430147  RH  031%=      5-min Rain = 0
KTH1 150408Z 30012KT 34/14 A2985 RMK A01 T03430144  RH  030%=      5-min Rain = 0
KTH1 150409Z 30012KT 34/15 A2985 RMK A01 T03440153  RH  032%=      5-min Rain = 0
KTH1 150410Z 29011KT 34/15 A2985 RMK A01 T03440152  RH  032%=      5-min Rain = 0
KTH1 150411Z 29011KT 34/15 A2985 RMK A01 T03440150  RH  031%=      5-min Rain = 0
KTH1 150412Z 29010KT 34/15 A2985 RMK A01 T03440150  RH  031%=      5-min Rain = 0
KTH1 150413Z 29011KT 34/15 A2985 RMK A01 T03440154  RH  032%=      5-min Rain = 0
KTH1 150414Z 29011KT 34/15 A2985 RMK A01 T03430154  RH  032%=      5-min Rain = 0
KTH1 150415Z 29010KT 34/14 A2985 RMK A01 T03430142  RH  030%=      5-min Rain = 0
KTH1 150416Z 29010KT 34/15 A2985 RMK A01 T03440151  RH  031%=      5-min Rain = 0
KTH1 150417Z 29010KT 35/15 A2985 RMK A01 T03450148  RH  031%=      5-min Rain = 0
KTH1 150418Z 30011KT 35/15 A2985 RMK A01 T03450146  RH  030%=      5-min Rain = 0
KTH1 150419Z 29009KT 35/15 A2985 RMK A01 T03450147  RH  031%=      5-min Rain = 0
KTH1 150420Z 29010KT 35/15 A2985 RMK A01 T03460148  RH  031%=      5-min Rain = 0
KTH1 150421Z 29009KT 35/14 A2985 RMK A01 T03460144  RH  030%=      5-min Rain = 0
KTH1 150422Z 30010KT 35/15 A2985 RMK A01 T03450145  RH  030%=      5-min Rain = 0
KTH1 150423Z 29011KT 35/15 A2985 RMK A01 T03450148  RH  031%=      5-min Rain = 0
KTH1 150424Z 30012KT 34/14 A2985 RMK A01 T03440139  RH  029%=      5-min Rain = 0
KTH1 150425Z 30011KT 34/14 A2985 RMK A01 T03440137  RH  029%=      5-min Rain = 0
KTH1 150426Z 30012KT 35/14 A2985 RMK A01 T03450139  RH  029%=      5-min Rain = 0
KTH1 150427Z 30011KT 35/14 A2985 RMK A01 T03450138  RH  029%=      5-min Rain = 0
KTH1 150428Z 30012KT 35/14 A2985 RMK A01 T03450136  RH  028%=      5-min Rain = 0
KTH1 150429Z 31012KT 35/13 A2985 RMK A01 T03450130  RH  027%=      5-min Rain = 0
KTH1 150430Z 30012KT 35/14 A2986 RMK A01 T03460135  RH  028%=      5-min Rain = 0
KTH1 150431Z 30012KT 35/14 A2986 RMK A01 T03460136  RH  028%=      5-min Rain = 0
KTH1 150432Z 30011KT 35/13 A2986 RMK A01 T03460133  RH  028%=      5-min Rain = 0
KTH1 150433Z 29010KT 35/14 A2986 RMK A01 T03460143  RH  030%=      5-min Rain = 0
KTH1 150434Z 30010KT 35/14 A2986 RMK A01 T03450142  RH  029%=      5-min Rain = 0
KTH1 150435Z 29009KT 35/14 A2986 RMK A01 T03450139  RH  029%=      5-min Rain = 0
KTH1 150436Z 30010KT 34/15 A2986 RMK A01 T03440147  RH  031%=      5-min Rain = 0
KTH1 150437Z 29008KT 34/14 A2986 RMK A01 T03430137  RH  029%=      5-min Rain = 0
KTH1 150438Z 29009KT 34/14 A2986 RMK A01 T03430142  RH  030%=      5-min Rain = 0
KTH1 150439Z 28008KT 34/14 A2986 RMK A01 T03430141  RH  030%=      5-min Rain = 0
KTH1 150440Z 29008KT 34/14 A2986 RMK A01 T03430144  RH  030%=      5-min Rain = 0
KTH1 150441Z 29009KT 34/14 A2986 RMK A01 T03420138  RH  029%=      5-min Rain = 0
KTH1 150442Z 29008KT 34/14 A2986 RMK A01 T03420137  RH  029%=      5-min Rain = 0
KTH1 150443Z 29007KT 34/14 A2986 RMK A01 T03420142  RH  030%=      5-min Rain = 0
KTH1 150444Z 28008KT 34/15 A2986 RMK A01 T03420147  RH  031%=      5-min Rain = 0
KTH1 150445Z 29008KT 34/14 A2986 RMK A01 T03410141  RH  030%=      5-min Rain = 0
KTH1 150446Z 29008KT 34/15 A2986 RMK A01 T03410148  RH  031%=      5-min Rain = 0
KTH1 150447Z 28007KT 34/15 A2986 RMK A01 T03400146  RH  031%=      5-min Rain = 0
KTH1 150448Z 29008KT 34/15 A2986 RMK A01 T03400151  RH  032%=      5-min Rain = 0
KTH1 150449Z 29008KT 34/14 A2986 RMK A01 T03390144  RH  031%=      5-min Rain = 0
KTH1 150450Z 30009KT 34/14 A2986 RMK A01 T03390144  RH  031%=      5-min Rain = 0
KTH1 150451Z 30008KT 34/14 A2986 RMK A01 T03390144  RH  031%=      5-min Rain = 0
KTH1 150452Z 30008KT 34/15 A2986 RMK A01 T03390147  RH  032%=      5-min Rain = 0
KTH1 150453Z 30007KT 34/15 A2986 RMK A01 T03380147  RH  032%=      5-min Rain = 0
KTH1 150454Z 30008KT 34/15 A2986 RMK A01 T03380145  RH  031%=      5-min Rain = 0
KTH1 150455Z 30007KT 34/15 A2986 RMK A01 T03380151  RH  033%=      5-min Rain = 0
KTH1 150456Z 30008KT 34/15 A2986 RMK A01 T03370145  RH  031%=      5-min Rain = 0
KTH1 150457Z 30007KT 34/15 A2986 RMK A01 T03370151  RH  033%=      5-min Rain = 0
KTH1 150458Z 30008KT 34/15 A2986 RMK A01 T03370145  RH  031%=      5-min Rain = 0
KTH1 150459Z 30007KT 34/15 A2986 RMK A01 T03370147  RH  032%=      5-min Rain = 0

Page generated in 0.1208 seconds.